<?xml version="1.0" encoding="UTF-8" standalone="no" ?>
<gpx xmlns="http://www.topografix.com/GPX/1/1" xmlns:xsi="http://www.w3.org/2001/XMLSchema-instance" xsi:schemaLocation="http://www.topografix.com/GPX/1/1 http://www.topografix.com/GPX/1/1/gpx.xsd" version="1.1" creator="VisuGPX - https://www.visugpx.com">
  <metadata>
    <name>Le long de la durance</name>
    <desc><![CDATA[Petit circuit hivernal de part et d\'autre de la Durance pour refaire connaissance avec son vélo]]></desc>
  </metadata>
  <trk>
    <name><![CDATA[N°  ACTIVE LOG 004]]></name>
    <trkseg>
      <trkpt lat="44.45531" lon="6.03351">
        <ele>482.2385254</ele>
        <time>2013-01-31T10:48:04Z</time>
      </trkpt>
      <trkpt lat="44.45533" lon="6.03349">
        <ele>480.315918</ele>
        <time>2013-01-31T10:48:07Z</time>
      </trkpt>
      <trkpt lat="44.45533" lon="6.03348">
        <ele>482.2385254</ele>
        <time>2013-01-31T10:48:10Z</time>
      </trkpt>
      <trkpt lat="44.45534" lon="6.03345">
        <ele>485.1224365</ele>
        <time>2013-01-31T10:48:18Z</time>
      </trkpt>
      <trkpt lat="44.45535" lon="6.03345">
        <ele>488.4871826</ele>
        <time>2013-01-31T10:48:19Z</time>
      </trkpt>
      <trkpt lat="44.45535" lon="6.03345">
        <ele>491.8516846</ele>
        <time>2013-01-31T10:48:20Z</time>
      </trkpt>
      <trkpt lat="44.45534" lon="6.03348">
        <ele>497.6196289</ele>
        <time>2013-01-31T10:48:22Z</time>
      </trkpt>
      <trkpt lat="44.45534" lon="6.0335">
        <ele>503.3874512</ele>
        <time>2013-01-31T10:48:24Z</time>
      </trkpt>
      <trkpt lat="44.45534" lon="6.03351">
        <ele>508.6746826</ele>
        <time>2013-01-31T10:48:26Z</time>
      </trkpt>
      <trkpt lat="44.45534" lon="6.03352">
        <ele>513.4814453</ele>
        <time>2013-01-31T10:48:28Z</time>
      </trkpt>
      <trkpt lat="44.45534" lon="6.03352">
        <ele>518.7685547</ele>
        <time>2013-01-31T10:48:30Z</time>
      </trkpt>
      <trkpt lat="44.45534" lon="6.03352">
        <ele>523.0946045</ele>
        <time>2013-01-31T10:48:32Z</time>
      </trkpt>
      <trkpt lat="44.45534" lon="6.03353">
        <ele>527.901001</ele>
        <time>2013-01-31T10:48:34Z</time>
      </trkpt>
      <trkpt lat="44.45535" lon="6.03353">
        <ele>531.7463379</ele>
        <time>2013-01-31T10:48:36Z</time>
      </trkpt>
      <trkpt lat="44.45536" lon="6.03353">
        <ele>535.5915527</ele>
        <time>2013-01-31T10:48:38Z</time>
      </trkpt>
      <trkpt lat="44.45536" lon="6.03353">
        <ele>538.9562988</ele>
        <time>2013-01-31T10:48:40Z</time>
      </trkpt>
      <trkpt lat="44.45536" lon="6.03353">
        <ele>542.8015137</ele>
        <time>2013-01-31T10:48:42Z</time>
      </trkpt>
      <trkpt lat="44.45535" lon="6.03353">
        <ele>547.1274414</ele>
        <time>2013-01-31T10:48:45Z</time>
      </trkpt>
      <trkpt lat="44.45536" lon="6.03353">
        <ele>550.4921875</ele>
        <time>2013-01-31T10:48:47Z</time>
      </trkpt>
      <trkpt lat="44.45536" lon="6.03353">
        <ele>554.3374023</ele>
        <time>2013-01-31T10:48:50Z</time>
      </trkpt>
      <trkpt lat="44.45536" lon="6.03353">
        <ele>558.1828613</ele>
        <time>2013-01-31T10:48:53Z</time>
      </trkpt>
      <trkpt lat="44.45536" lon="6.03353">
        <ele>561.5473633</ele>
        <time>2013-01-31T10:48:56Z</time>
      </trkpt>
      <trkpt lat="44.45536" lon="6.03353">
        <ele>564.9118652</ele>
        <time>2013-01-31T10:49:01Z</time>
      </trkpt>
      <trkpt lat="44.45536" lon="6.03353">
        <ele>565.873291</ele>
        <time>2013-01-31T10:49:03Z</time>
      </trkpt>
      <trkpt lat="44.45536" lon="6.03353">
        <ele>568.7570801</ele>
        <time>2013-01-31T10:49:25Z</time>
      </trkpt>
      <trkpt lat="44.45536" lon="6.03353">
        <ele>569.7185059</ele>
        <time>2013-01-31T10:49:27Z</time>
      </trkpt>
      <trkpt lat="44.45536" lon="6.03353">
        <ele>572.6025391</ele>
        <time>2013-01-31T10:49:30Z</time>
      </trkpt>
      <trkpt lat="44.45536" lon="6.03353">
        <ele>575.4863281</ele>
        <time>2013-01-31T10:49:34Z</time>
      </trkpt>
      <trkpt lat="44.45536" lon="6.03353">
        <ele>578.3703613</ele>
        <time>2013-01-31T10:49:37Z</time>
      </trkpt>
      <trkpt lat="44.45536" lon="6.03353">
        <ele>582.2155762</ele>
        <time>2013-01-31T10:49:46Z</time>
      </trkpt>
      <trkpt lat="44.45536" lon="6.03353">
        <ele>584.1381836</ele>
        <time>2013-01-31T10:49:52Z</time>
      </trkpt>
      <trkpt lat="44.45537" lon="6.03353">
        <ele>587.0219727</ele>
        <time>2013-01-31T10:50:07Z</time>
      </trkpt>
      <trkpt lat="44.45539" lon="6.03356">
        <ele>589.4255371</ele>
        <time>2013-01-31T10:50:24Z</time>
      </trkpt>
      <trkpt lat="44.45538" lon="6.03354">
        <ele>592.7902832</ele>
        <time>2013-01-31T10:51:00Z</time>
      </trkpt>
      <trkpt lat="44.45538" lon="6.03354">
        <ele>590.8674316</ele>
        <time>2013-01-31T10:51:50Z</time>
      </trkpt>
      <trkpt lat="44.45538" lon="6.03354">
        <ele>592.3095703</ele>
        <time>2013-01-31T10:51:52Z</time>
      </trkpt>
      <trkpt lat="44.45538" lon="6.03354">
        <ele>592.7902832</ele>
        <time>2013-01-31T10:51:57Z</time>
      </trkpt>
      <trkpt lat="44.4553" lon="6.03349">
        <ele>590.8674316</ele>
        <time>2013-01-31T10:52:02Z</time>
      </trkpt>
      <trkpt lat="44.45525" lon="6.03349">
        <ele>590.3869629</ele>
        <time>2013-01-31T10:52:04Z</time>
      </trkpt>
      <trkpt lat="44.4552" lon="6.03351">
        <ele>590.3869629</ele>
        <time>2013-01-31T10:52:06Z</time>
      </trkpt>
      <trkpt lat="44.45514" lon="6.03383">
        <ele>590.3869629</ele>
        <time>2013-01-31T10:52:14Z</time>
      </trkpt>
      <trkpt lat="44.45506" lon="6.0339">
        <ele>591.3481445</ele>
        <time>2013-01-31T10:52:18Z</time>
      </trkpt>
      <trkpt lat="44.455" lon="6.03391">
        <ele>590.3869629</ele>
        <time>2013-01-31T10:52:20Z</time>
      </trkpt>
      <trkpt lat="44.45494" lon="6.03374">
        <ele>590.3869629</ele>
        <time>2013-01-31T10:52:25Z</time>
      </trkpt>
      <trkpt lat="44.45494" lon="6.03333">
        <ele>592.3095703</ele>
        <time>2013-01-31T10:52:36Z</time>
      </trkpt>
      <trkpt lat="44.455" lon="6.03325">
        <ele>593.7514648</ele>
        <time>2013-01-31T10:52:43Z</time>
      </trkpt>
      <trkpt lat="44.455" lon="6.03326">
        <ele>592.7902832</ele>
        <time>2013-01-31T10:52:47Z</time>
      </trkpt>
      <trkpt lat="44.45499" lon="6.03325">
        <ele>592.7902832</ele>
        <time>2013-01-31T10:53:13Z</time>
      </trkpt>
      <trkpt lat="44.45499" lon="6.03325">
        <ele>591.8288574</ele>
        <time>2013-01-31T10:53:20Z</time>
      </trkpt>
      <trkpt lat="44.45499" lon="6.03325">
        <ele>589.90625</ele>
        <time>2013-01-31T10:53:22Z</time>
      </trkpt>
      <trkpt lat="44.45499" lon="6.03325">
        <ele>592.7902832</ele>
        <time>2013-01-31T10:53:28Z</time>
      </trkpt>
      <trkpt lat="44.45499" lon="6.03325">
        <ele>592.7902832</ele>
        <time>2013-01-31T10:53:29Z</time>
      </trkpt>
      <trkpt lat="44.455" lon="6.03326">
        <ele>593.270752</ele>
        <time>2013-01-31T10:54:23Z</time>
      </trkpt>
      <trkpt lat="44.45509" lon="6.03325">
        <ele>591.3481445</ele>
        <time>2013-01-31T10:54:27Z</time>
      </trkpt>
      <trkpt lat="44.4553" lon="6.03327">
        <ele>593.270752</ele>
        <time>2013-01-31T10:54:32Z</time>
      </trkpt>
      <trkpt lat="44.45588" lon="6.03331">
        <ele>592.3095703</ele>
        <time>2013-01-31T10:54:46Z</time>
      </trkpt>
      <trkpt lat="44.45607" lon="6.03334">
        <ele>595.1933594</ele>
        <time>2013-01-31T10:54:50Z</time>
      </trkpt>
      <trkpt lat="44.45699" lon="6.03347">
        <ele>595.6740723</ele>
        <time>2013-01-31T10:55:10Z</time>
      </trkpt>
      <trkpt lat="44.45706" lon="6.03383">
        <ele>595.6740723</ele>
        <time>2013-01-31T10:55:14Z</time>
      </trkpt>
      <trkpt lat="44.45709" lon="6.03392">
        <ele>594.2321777</ele>
        <time>2013-01-31T10:55:17Z</time>
      </trkpt>
      <trkpt lat="44.4573" lon="6.03435">
        <ele>592.7902832</ele>
        <time>2013-01-31T10:55:25Z</time>
      </trkpt>
      <trkpt lat="44.45732" lon="6.03448">
        <ele>595.1933594</ele>
        <time>2013-01-31T10:55:27Z</time>
      </trkpt>
      <trkpt lat="44.45731" lon="6.03443">
        <ele>595.1933594</ele>
        <time>2013-01-31T10:55:31Z</time>
      </trkpt>
      <trkpt lat="44.45737" lon="6.03474">
        <ele>593.7514648</ele>
        <time>2013-01-31T10:55:34Z</time>
      </trkpt>
      <trkpt lat="44.45827" lon="6.03464">
        <ele>597.1159668</ele>
        <time>2013-01-31T10:55:43Z</time>
      </trkpt>
      <trkpt lat="44.45832" lon="6.03464">
        <ele>597.1159668</ele>
        <time>2013-01-31T10:55:44Z</time>
      </trkpt>
      <trkpt lat="44.45919" lon="6.0348">
        <ele>597.1159668</ele>
        <time>2013-01-31T10:56:04Z</time>
      </trkpt>
      <trkpt lat="44.4593" lon="6.03487">
        <ele>595.1933594</ele>
        <time>2013-01-31T10:56:07Z</time>
      </trkpt>
      <trkpt lat="44.45941" lon="6.03513">
        <ele>596.1547852</ele>
        <time>2013-01-31T10:56:12Z</time>
      </trkpt>
      <trkpt lat="44.45944" lon="6.03532">
        <ele>596.1547852</ele>
        <time>2013-01-31T10:56:15Z</time>
      </trkpt>
      <trkpt lat="44.45956" lon="6.0356">
        <ele>596.1547852</ele>
        <time>2013-01-31T10:56:20Z</time>
      </trkpt>
      <trkpt lat="44.45999" lon="6.03598">
        <ele>596.635498</ele>
        <time>2013-01-31T10:56:34Z</time>
      </trkpt>
      <trkpt lat="44.46048" lon="6.03631">
        <ele>599.0385742</ele>
        <time>2013-01-31T10:56:51Z</time>
      </trkpt>
      <trkpt lat="44.46086" lon="6.03657">
        <ele>602.4030762</ele>
        <time>2013-01-31T10:57:08Z</time>
      </trkpt>
      <trkpt lat="44.46091" lon="6.03661">
        <ele>602.4030762</ele>
        <time>2013-01-31T10:57:10Z</time>
      </trkpt>
      <trkpt lat="44.46109" lon="6.03722">
        <ele>602.4030762</ele>
        <time>2013-01-31T10:57:24Z</time>
      </trkpt>
      <trkpt lat="44.46132" lon="6.0382">
        <ele>602.8837891</ele>
        <time>2013-01-31T10:57:43Z</time>
      </trkpt>
      <trkpt lat="44.46156" lon="6.03914">
        <ele>603.364502</ele>
        <time>2013-01-31T10:58:02Z</time>
      </trkpt>
      <trkpt lat="44.46189" lon="6.04023">
        <ele>604.3261719</ele>
        <time>2013-01-31T10:58:25Z</time>
      </trkpt>
      <trkpt lat="44.46203" lon="6.04119">
        <ele>605.7680664</ele>
        <time>2013-01-31T10:58:45Z</time>
      </trkpt>
      <trkpt lat="44.46188" lon="6.04145">
        <ele>606.2485352</ele>
        <time>2013-01-31T10:58:50Z</time>
      </trkpt>
      <trkpt lat="44.46176" lon="6.04157">
        <ele>604.8066406</ele>
        <time>2013-01-31T10:58:53Z</time>
      </trkpt>
      <trkpt lat="44.4617" lon="6.04166">
        <ele>605.7680664</ele>
        <time>2013-01-31T10:58:55Z</time>
      </trkpt>
      <trkpt lat="44.46156" lon="6.04193">
        <ele>604.3261719</ele>
        <time>2013-01-31T10:59:00Z</time>
      </trkpt>
      <trkpt lat="44.4614" lon="6.04276">
        <ele>604.8066406</ele>
        <time>2013-01-31T10:59:12Z</time>
      </trkpt>
      <trkpt lat="44.46137" lon="6.04309">
        <ele>603.8452148</ele>
        <time>2013-01-31T10:59:17Z</time>
      </trkpt>
      <trkpt lat="44.46135" lon="6.04321">
        <ele>602.4030762</ele>
        <time>2013-01-31T10:59:19Z</time>
      </trkpt>
      <trkpt lat="44.46124" lon="6.04374">
        <ele>605.2873535</ele>
        <time>2013-01-31T10:59:28Z</time>
      </trkpt>
      <trkpt lat="44.46115" lon="6.044">
        <ele>606.729248</ele>
        <time>2013-01-31T10:59:33Z</time>
      </trkpt>
      <trkpt lat="44.46111" lon="6.04411">
        <ele>604.8066406</ele>
        <time>2013-01-31T10:59:35Z</time>
      </trkpt>
      <trkpt lat="44.46071" lon="6.0451">
        <ele>603.8452148</ele>
        <time>2013-01-31T10:59:48Z</time>
      </trkpt>
      <trkpt lat="44.46067" lon="6.04624">
        <ele>603.8452148</ele>
        <time>2013-01-31T11:00:01Z</time>
      </trkpt>
      <trkpt lat="44.46076" lon="6.04682">
        <ele>602.8837891</ele>
        <time>2013-01-31T11:00:09Z</time>
      </trkpt>
      <trkpt lat="44.46081" lon="6.04708">
        <ele>603.364502</ele>
        <time>2013-01-31T11:00:13Z</time>
      </trkpt>
      <trkpt lat="44.461" lon="6.04779">
        <ele>604.8066406</ele>
        <time>2013-01-31T11:00:26Z</time>
      </trkpt>
      <trkpt lat="44.46094" lon="6.04804">
        <ele>602.4030762</ele>
        <time>2013-01-31T11:00:31Z</time>
      </trkpt>
      <trkpt lat="44.46079" lon="6.04851">
        <ele>602.8837891</ele>
        <time>2013-01-31T11:00:39Z</time>
      </trkpt>
      <trkpt lat="44.46067" lon="6.04857">
        <ele>603.8452148</ele>
        <time>2013-01-31T11:00:44Z</time>
      </trkpt>
      <trkpt lat="44.46058" lon="6.0487">
        <ele>602.4030762</ele>
        <time>2013-01-31T11:00:47Z</time>
      </trkpt>
      <trkpt lat="44.46028" lon="6.04903">
        <ele>599.5192871</ele>
        <time>2013-01-31T11:00:57Z</time>
      </trkpt>
      <trkpt lat="44.4601" lon="6.04927">
        <ele>600.9611816</ele>
        <time>2013-01-31T11:01:09Z</time>
      </trkpt>
      <trkpt lat="44.4601" lon="6.04927">
        <ele>600</ele>
        <time>2013-01-31T11:01:24Z</time>
      </trkpt>
      <trkpt lat="44.4599" lon="6.0495">
        <ele>601.4418945</ele>
        <time>2013-01-31T11:03:10Z</time>
      </trkpt>
      <trkpt lat="44.45987" lon="6.04954">
        <ele>600.4807129</ele>
        <time>2013-01-31T11:03:11Z</time>
      </trkpt>
      <trkpt lat="44.45977" lon="6.04967">
        <ele>600.9611816</ele>
        <time>2013-01-31T11:03:14Z</time>
      </trkpt>
      <trkpt lat="44.45929" lon="6.05033">
        <ele>600.9611816</ele>
        <time>2013-01-31T11:03:30Z</time>
      </trkpt>
      <trkpt lat="44.45913" lon="6.05058">
        <ele>602.4030762</ele>
        <time>2013-01-31T11:03:36Z</time>
      </trkpt>
      <trkpt lat="44.45895" lon="6.05086">
        <ele>601.9226074</ele>
        <time>2013-01-31T11:03:46Z</time>
      </trkpt>
      <trkpt lat="44.45894" lon="6.05088">
        <ele>602.4030762</ele>
        <time>2013-01-31T11:03:55Z</time>
      </trkpt>
      <trkpt lat="44.45892" lon="6.05091">
        <ele>603.364502</ele>
        <time>2013-01-31T11:03:57Z</time>
      </trkpt>
      <trkpt lat="44.45897" lon="6.05104">
        <ele>602.4030762</ele>
        <time>2013-01-31T11:04:01Z</time>
      </trkpt>
      <trkpt lat="44.4591" lon="6.05121">
        <ele>604.3261719</ele>
        <time>2013-01-31T11:04:06Z</time>
      </trkpt>
      <trkpt lat="44.45926" lon="6.05148">
        <ele>600.4807129</ele>
        <time>2013-01-31T11:04:12Z</time>
      </trkpt>
      <trkpt lat="44.45928" lon="6.05152">
        <ele>600.4807129</ele>
        <time>2013-01-31T11:04:13Z</time>
      </trkpt>
      <trkpt lat="44.45933" lon="6.05163">
        <ele>602.4030762</ele>
        <time>2013-01-31T11:04:15Z</time>
      </trkpt>
      <trkpt lat="44.45976" lon="6.05252">
        <ele>602.4030762</ele>
        <time>2013-01-31T11:04:33Z</time>
      </trkpt>
      <trkpt lat="44.46023" lon="6.05344">
        <ele>602.4030762</ele>
        <time>2013-01-31T11:04:52Z</time>
      </trkpt>
      <trkpt lat="44.46029" lon="6.05353">
        <ele>605.2873535</ele>
        <time>2013-01-31T11:04:54Z</time>
      </trkpt>
      <trkpt lat="44.46032" lon="6.05358">
        <ele>605.2873535</ele>
        <time>2013-01-31T11:04:55Z</time>
      </trkpt>
      <trkpt lat="44.46053" lon="6.05388">
        <ele>605.7680664</ele>
        <time>2013-01-31T11:05:02Z</time>
      </trkpt>
      <trkpt lat="44.46059" lon="6.05397">
        <ele>604.3261719</ele>
        <time>2013-01-31T11:05:04Z</time>
      </trkpt>
      <trkpt lat="44.46131" lon="6.05497">
        <ele>602.8837891</ele>
        <time>2013-01-31T11:05:28Z</time>
      </trkpt>
      <trkpt lat="44.46134" lon="6.055">
        <ele>602.8837891</ele>
        <time>2013-01-31T11:05:29Z</time>
      </trkpt>
      <trkpt lat="44.46153" lon="6.0551">
        <ele>601.9226074</ele>
        <time>2013-01-31T11:05:34Z</time>
      </trkpt>
      <trkpt lat="44.4619" lon="6.05518">
        <ele>602.4030762</ele>
        <time>2013-01-31T11:05:43Z</time>
      </trkpt>
      <trkpt lat="44.46202" lon="6.05523">
        <ele>601.4418945</ele>
        <time>2013-01-31T11:05:46Z</time>
      </trkpt>
      <trkpt lat="44.46234" lon="6.05573">
        <ele>601.4418945</ele>
        <time>2013-01-31T11:05:58Z</time>
      </trkpt>
      <trkpt lat="44.46251" lon="6.05615">
        <ele>600</ele>
        <time>2013-01-31T11:06:05Z</time>
      </trkpt>
      <trkpt lat="44.46258" lon="6.05631">
        <ele>600</ele>
        <time>2013-01-31T11:06:08Z</time>
      </trkpt>
      <trkpt lat="44.46269" lon="6.05656">
        <ele>598.0773926</ele>
        <time>2013-01-31T11:06:13Z</time>
      </trkpt>
      <trkpt lat="44.46272" lon="6.05662">
        <ele>599.5192871</ele>
        <time>2013-01-31T11:06:14Z</time>
      </trkpt>
      <trkpt lat="44.46281" lon="6.05679">
        <ele>597.5966797</ele>
        <time>2013-01-31T11:06:17Z</time>
      </trkpt>
      <trkpt lat="44.46292" lon="6.05693">
        <ele>599.0385742</ele>
        <time>2013-01-31T11:06:20Z</time>
      </trkpt>
      <trkpt lat="44.46307" lon="6.05704">
        <ele>598.0773926</ele>
        <time>2013-01-31T11:06:23Z</time>
      </trkpt>
      <trkpt lat="44.46322" lon="6.05716">
        <ele>596.635498</ele>
        <time>2013-01-31T11:06:27Z</time>
      </trkpt>
      <trkpt lat="44.46322" lon="6.05728">
        <ele>594.2321777</ele>
        <time>2013-01-31T11:06:29Z</time>
      </trkpt>
      <trkpt lat="44.46315" lon="6.05731">
        <ele>594.2321777</ele>
        <time>2013-01-31T11:06:31Z</time>
      </trkpt>
      <trkpt lat="44.46278" lon="6.05727">
        <ele>592.3095703</ele>
        <time>2013-01-31T11:06:38Z</time>
      </trkpt>
      <trkpt lat="44.4626" lon="6.0574">
        <ele>590.8674316</ele>
        <time>2013-01-31T11:06:42Z</time>
      </trkpt>
      <trkpt lat="44.46226" lon="6.05776">
        <ele>590.3869629</ele>
        <time>2013-01-31T11:06:50Z</time>
      </trkpt>
      <trkpt lat="44.46216" lon="6.05799">
        <ele>589.4255371</ele>
        <time>2013-01-31T11:06:54Z</time>
      </trkpt>
      <trkpt lat="44.46195" lon="6.05909">
        <ele>590.3869629</ele>
        <time>2013-01-31T11:07:12Z</time>
      </trkpt>
      <trkpt lat="44.4619" lon="6.0593">
        <ele>591.3481445</ele>
        <time>2013-01-31T11:07:18Z</time>
      </trkpt>
      <trkpt lat="44.46182" lon="6.05965">
        <ele>592.3095703</ele>
        <time>2013-01-31T11:07:30Z</time>
      </trkpt>
      <trkpt lat="44.46182" lon="6.05973">
        <ele>592.7902832</ele>
        <time>2013-01-31T11:07:34Z</time>
      </trkpt>
      <trkpt lat="44.46182" lon="6.05973">
        <ele>591.3481445</ele>
        <time>2013-01-31T11:07:37Z</time>
      </trkpt>
      <trkpt lat="44.46183" lon="6.05961">
        <ele>590.3869629</ele>
        <time>2013-01-31T11:07:40Z</time>
      </trkpt>
      <trkpt lat="44.4619" lon="6.05932">
        <ele>591.3481445</ele>
        <time>2013-01-31T11:07:45Z</time>
      </trkpt>
      <trkpt lat="44.46176" lon="6.05907">
        <ele>589.4255371</ele>
        <time>2013-01-31T11:07:51Z</time>
      </trkpt>
      <trkpt lat="44.46077" lon="6.05872">
        <ele>588.4643555</ele>
        <time>2013-01-31T11:08:11Z</time>
      </trkpt>
      <trkpt lat="44.45969" lon="6.05835">
        <ele>588.4643555</ele>
        <time>2013-01-31T11:08:35Z</time>
      </trkpt>
      <trkpt lat="44.45956" lon="6.0583">
        <ele>587.9833984</ele>
        <time>2013-01-31T11:08:38Z</time>
      </trkpt>
      <trkpt lat="44.45936" lon="6.05804">
        <ele>587.9833984</ele>
        <time>2013-01-31T11:08:44Z</time>
      </trkpt>
      <trkpt lat="44.45907" lon="6.0581">
        <ele>588.4643555</ele>
        <time>2013-01-31T11:08:50Z</time>
      </trkpt>
      <trkpt lat="44.45788" lon="6.05765">
        <ele>587.9833984</ele>
        <time>2013-01-31T11:09:16Z</time>
      </trkpt>
      <trkpt lat="44.45665" lon="6.05707">
        <ele>588.4643555</ele>
        <time>2013-01-31T11:09:41Z</time>
      </trkpt>
      <trkpt lat="44.45586" lon="6.05662">
        <ele>587.5026855</ele>
        <time>2013-01-31T11:10:01Z</time>
      </trkpt>
      <trkpt lat="44.45465" lon="6.05617">
        <ele>587.5026855</ele>
        <time>2013-01-31T11:10:27Z</time>
      </trkpt>
      <trkpt lat="44.45353" lon="6.05575">
        <ele>587.5026855</ele>
        <time>2013-01-31T11:10:51Z</time>
      </trkpt>
      <trkpt lat="44.45228" lon="6.0553">
        <ele>586.5415039</ele>
        <time>2013-01-31T11:11:17Z</time>
      </trkpt>
      <trkpt lat="44.45157" lon="6.05505">
        <ele>586.060791</ele>
        <time>2013-01-31T11:11:32Z</time>
      </trkpt>
      <trkpt lat="44.45116" lon="6.05488">
        <ele>586.060791</ele>
        <time>2013-01-31T11:11:41Z</time>
      </trkpt>
      <trkpt lat="44.45094" lon="6.05473">
        <ele>586.060791</ele>
        <time>2013-01-31T11:11:46Z</time>
      </trkpt>
      <trkpt lat="44.45039" lon="6.05384">
        <ele>586.5415039</ele>
        <time>2013-01-31T11:12:04Z</time>
      </trkpt>
      <trkpt lat="44.45001" lon="6.05338">
        <ele>589.4255371</ele>
        <time>2013-01-31T11:12:20Z</time>
      </trkpt>
      <trkpt lat="44.44965" lon="6.05327">
        <ele>592.3095703</ele>
        <time>2013-01-31T11:12:35Z</time>
      </trkpt>
      <trkpt lat="44.4492" lon="6.05317">
        <ele>595.6740723</ele>
        <time>2013-01-31T11:12:53Z</time>
      </trkpt>
      <trkpt lat="44.44859" lon="6.05283">
        <ele>595.1933594</ele>
        <time>2013-01-31T11:13:09Z</time>
      </trkpt>
      <trkpt lat="44.44808" lon="6.0525">
        <ele>594.2321777</ele>
        <time>2013-01-31T11:13:20Z</time>
      </trkpt>
      <trkpt lat="44.44793" lon="6.05231">
        <ele>593.7514648</ele>
        <time>2013-01-31T11:13:24Z</time>
      </trkpt>
      <trkpt lat="44.44786" lon="6.0522">
        <ele>593.270752</ele>
        <time>2013-01-31T11:13:26Z</time>
      </trkpt>
      <trkpt lat="44.44726" lon="6.05117">
        <ele>592.3095703</ele>
        <time>2013-01-31T11:13:44Z</time>
      </trkpt>
      <trkpt lat="44.44723" lon="6.05112">
        <ele>592.3095703</ele>
        <time>2013-01-31T11:13:45Z</time>
      </trkpt>
      <trkpt lat="44.44685" lon="6.05047">
        <ele>592.3095703</ele>
        <time>2013-01-31T11:13:58Z</time>
      </trkpt>
      <trkpt lat="44.4465" lon="6.0499">
        <ele>591.3481445</ele>
        <time>2013-01-31T11:14:10Z</time>
      </trkpt>
      <trkpt lat="44.44631" lon="6.04963">
        <ele>592.7902832</ele>
        <time>2013-01-31T11:14:16Z</time>
      </trkpt>
      <trkpt lat="44.44569" lon="6.0487">
        <ele>593.270752</ele>
        <time>2013-01-31T11:14:36Z</time>
      </trkpt>
      <trkpt lat="44.44516" lon="6.04766">
        <ele>591.8288574</ele>
        <time>2013-01-31T11:14:55Z</time>
      </trkpt>
      <trkpt lat="44.44507" lon="6.04735">
        <ele>591.3481445</ele>
        <time>2013-01-31T11:15:00Z</time>
      </trkpt>
      <trkpt lat="44.44503" lon="6.04717">
        <ele>592.7902832</ele>
        <time>2013-01-31T11:15:03Z</time>
      </trkpt>
      <trkpt lat="44.44496" lon="6.04692">
        <ele>591.3481445</ele>
        <time>2013-01-31T11:15:07Z</time>
      </trkpt>
      <trkpt lat="44.44463" lon="6.04593">
        <ele>590.8674316</ele>
        <time>2013-01-31T11:15:22Z</time>
      </trkpt>
      <trkpt lat="44.44422" lon="6.04488">
        <ele>591.3481445</ele>
        <time>2013-01-31T11:15:41Z</time>
      </trkpt>
      <trkpt lat="44.44379" lon="6.0441">
        <ele>592.3095703</ele>
        <time>2013-01-31T11:15:58Z</time>
      </trkpt>
      <trkpt lat="44.44363" lon="6.04382">
        <ele>592.7902832</ele>
        <time>2013-01-31T11:16:04Z</time>
      </trkpt>
      <trkpt lat="44.44303" lon="6.04253">
        <ele>593.270752</ele>
        <time>2013-01-31T11:16:30Z</time>
      </trkpt>
      <trkpt lat="44.44299" lon="6.04243">
        <ele>593.270752</ele>
        <time>2013-01-31T11:16:32Z</time>
      </trkpt>
      <trkpt lat="44.44285" lon="6.04134">
        <ele>592.3095703</ele>
        <time>2013-01-31T11:16:50Z</time>
      </trkpt>
      <trkpt lat="44.44289" lon="6.04016">
        <ele>592.7902832</ele>
        <time>2013-01-31T11:17:08Z</time>
      </trkpt>
      <trkpt lat="44.44283" lon="6.03991">
        <ele>592.7902832</ele>
        <time>2013-01-31T11:17:12Z</time>
      </trkpt>
      <trkpt lat="44.44256" lon="6.03916">
        <ele>589.90625</ele>
        <time>2013-01-31T11:17:22Z</time>
      </trkpt>
      <trkpt lat="44.44252" lon="6.03906">
        <ele>589.90625</ele>
        <time>2013-01-31T11:17:23Z</time>
      </trkpt>
      <trkpt lat="44.44235" lon="6.03866">
        <ele>587.9833984</ele>
        <time>2013-01-31T11:17:27Z</time>
      </trkpt>
      <trkpt lat="44.44204" lon="6.03817">
        <ele>584.6188965</ele>
        <time>2013-01-31T11:17:32Z</time>
      </trkpt>
      <trkpt lat="44.44199" lon="6.03806">
        <ele>584.1381836</ele>
        <time>2013-01-31T11:17:33Z</time>
      </trkpt>
      <trkpt lat="44.4417" lon="6.0369">
        <ele>583.1767578</ele>
        <time>2013-01-31T11:17:44Z</time>
      </trkpt>
      <trkpt lat="44.44144" lon="6.03583">
        <ele>582.2155762</ele>
        <time>2013-01-31T11:17:57Z</time>
      </trkpt>
      <trkpt lat="44.44085" lon="6.03475">
        <ele>581.7348633</ele>
        <time>2013-01-31T11:18:14Z</time>
      </trkpt>
      <trkpt lat="44.44031" lon="6.03323">
        <ele>581.7348633</ele>
        <time>2013-01-31T11:18:36Z</time>
      </trkpt>
      <trkpt lat="44.4403" lon="6.03316">
        <ele>581.7348633</ele>
        <time>2013-01-31T11:18:37Z</time>
      </trkpt>
      <trkpt lat="44.44038" lon="6.03212">
        <ele>581.7348633</ele>
        <time>2013-01-31T11:18:52Z</time>
      </trkpt>
      <trkpt lat="44.44045" lon="6.03168">
        <ele>582.2155762</ele>
        <time>2013-01-31T11:18:59Z</time>
      </trkpt>
      <trkpt lat="44.44048" lon="6.0315">
        <ele>582.6962891</ele>
        <time>2013-01-31T11:19:02Z</time>
      </trkpt>
      <trkpt lat="44.44049" lon="6.03128">
        <ele>583.1767578</ele>
        <time>2013-01-31T11:19:06Z</time>
      </trkpt>
      <trkpt lat="44.44078" lon="6.03095">
        <ele>583.6574707</ele>
        <time>2013-01-31T11:19:15Z</time>
      </trkpt>
      <trkpt lat="44.44091" lon="6.03093">
        <ele>583.6574707</ele>
        <time>2013-01-31T11:19:18Z</time>
      </trkpt>
      <trkpt lat="44.44162" lon="6.03084">
        <ele>585.0996094</ele>
        <time>2013-01-31T11:19:36Z</time>
      </trkpt>
      <trkpt lat="44.4422" lon="6.03081">
        <ele>586.060791</ele>
        <time>2013-01-31T11:19:52Z</time>
      </trkpt>
      <trkpt lat="44.44237" lon="6.03085">
        <ele>589.4255371</ele>
        <time>2013-01-31T11:19:59Z</time>
      </trkpt>
      <trkpt lat="44.4424" lon="6.03087">
        <ele>589.4255371</ele>
        <time>2013-01-31T11:20:00Z</time>
      </trkpt>
      <trkpt lat="44.44243" lon="6.03092">
        <ele>587.5026855</ele>
        <time>2013-01-31T11:20:02Z</time>
      </trkpt>
      <trkpt lat="44.44264" lon="6.03139">
        <ele>588.9450684</ele>
        <time>2013-01-31T11:20:19Z</time>
      </trkpt>
      <trkpt lat="44.44273" lon="6.0314">
        <ele>592.7902832</ele>
        <time>2013-01-31T11:20:22Z</time>
      </trkpt>
      <trkpt lat="44.44275" lon="6.03139">
        <ele>592.7902832</ele>
        <time>2013-01-31T11:20:23Z</time>
      </trkpt>
      <trkpt lat="44.44278" lon="6.03137">
        <ele>591.8288574</ele>
        <time>2013-01-31T11:20:25Z</time>
      </trkpt>
      <trkpt lat="44.44281" lon="6.03134">
        <ele>590.3869629</ele>
        <time>2013-01-31T11:20:27Z</time>
      </trkpt>
      <trkpt lat="44.44285" lon="6.03123">
        <ele>591.3481445</ele>
        <time>2013-01-31T11:20:31Z</time>
      </trkpt>
      <trkpt lat="44.44275" lon="6.03108">
        <ele>590.8674316</ele>
        <time>2013-01-31T11:20:35Z</time>
      </trkpt>
      <trkpt lat="44.4425" lon="6.03054">
        <ele>592.3095703</ele>
        <time>2013-01-31T11:20:46Z</time>
      </trkpt>
      <trkpt lat="44.44222" lon="6.02923">
        <ele>588.9450684</ele>
        <time>2013-01-31T11:21:05Z</time>
      </trkpt>
      <trkpt lat="44.44219" lon="6.02858">
        <ele>587.9833984</ele>
        <time>2013-01-31T11:21:12Z</time>
      </trkpt>
      <trkpt lat="44.44226" lon="6.02833">
        <ele>590.3869629</ele>
        <time>2013-01-31T11:21:16Z</time>
      </trkpt>
      <trkpt lat="44.44234" lon="6.02814">
        <ele>588.4643555</ele>
        <time>2013-01-31T11:21:20Z</time>
      </trkpt>
      <trkpt lat="44.44229" lon="6.02777">
        <ele>588.4643555</ele>
        <time>2013-01-31T11:21:27Z</time>
      </trkpt>
      <trkpt lat="44.4423" lon="6.02768">
        <ele>588.4643555</ele>
        <time>2013-01-31T11:21:29Z</time>
      </trkpt>
      <trkpt lat="44.44242" lon="6.0272">
        <ele>588.4643555</ele>
        <time>2013-01-31T11:21:37Z</time>
      </trkpt>
      <trkpt lat="44.44251" lon="6.02698">
        <ele>588.9450684</ele>
        <time>2013-01-31T11:21:41Z</time>
      </trkpt>
      <trkpt lat="44.4427" lon="6.02657">
        <ele>587.5026855</ele>
        <time>2013-01-31T11:21:49Z</time>
      </trkpt>
      <trkpt lat="44.44295" lon="6.02632">
        <ele>592.3095703</ele>
        <time>2013-01-31T11:21:57Z</time>
      </trkpt>
      <trkpt lat="44.44297" lon="6.02628">
        <ele>592.3095703</ele>
        <time>2013-01-31T11:21:58Z</time>
      </trkpt>
      <trkpt lat="44.44298" lon="6.02621">
        <ele>589.4255371</ele>
        <time>2013-01-31T11:21:59Z</time>
      </trkpt>
      <trkpt lat="44.44298" lon="6.02615">
        <ele>589.4255371</ele>
        <time>2013-01-31T11:22:00Z</time>
      </trkpt>
      <trkpt lat="44.44296" lon="6.02603">
        <ele>589.90625</ele>
        <time>2013-01-31T11:22:02Z</time>
      </trkpt>
      <trkpt lat="44.4429" lon="6.02594">
        <ele>592.7902832</ele>
        <time>2013-01-31T11:22:04Z</time>
      </trkpt>
      <trkpt lat="44.44287" lon="6.02592">
        <ele>592.7902832</ele>
        <time>2013-01-31T11:22:05Z</time>
      </trkpt>
      <trkpt lat="44.44282" lon="6.02587">
        <ele>590.3869629</ele>
        <time>2013-01-31T11:22:06Z</time>
      </trkpt>
      <trkpt lat="44.44274" lon="6.02564">
        <ele>588.9450684</ele>
        <time>2013-01-31T11:22:10Z</time>
      </trkpt>
      <trkpt lat="44.4427" lon="6.02548">
        <ele>588.9450684</ele>
        <time>2013-01-31T11:22:12Z</time>
      </trkpt>
      <trkpt lat="44.44244" lon="6.02533">
        <ele>587.5026855</ele>
        <time>2013-01-31T11:22:18Z</time>
      </trkpt>
      <trkpt lat="44.44135" lon="6.02532">
        <ele>586.5415039</ele>
        <time>2013-01-31T11:22:38Z</time>
      </trkpt>
      <trkpt lat="44.44085" lon="6.02531">
        <ele>584.6188965</ele>
        <time>2013-01-31T11:22:47Z</time>
      </trkpt>
      <trkpt lat="44.44003" lon="6.02535">
        <ele>585.5800781</ele>
        <time>2013-01-31T11:23:02Z</time>
      </trkpt>
      <trkpt lat="44.43992" lon="6.02535">
        <ele>585.5800781</ele>
        <time>2013-01-31T11:23:04Z</time>
      </trkpt>
      <trkpt lat="44.43981" lon="6.02534">
        <ele>587.0219727</ele>
        <time>2013-01-31T11:23:06Z</time>
      </trkpt>
      <trkpt lat="44.4396" lon="6.0253">
        <ele>584.6188965</ele>
        <time>2013-01-31T11:23:10Z</time>
      </trkpt>
      <trkpt lat="44.43949" lon="6.02528">
        <ele>582.6962891</ele>
        <time>2013-01-31T11:23:12Z</time>
      </trkpt>
      <trkpt lat="44.43859" lon="6.02509">
        <ele>582.6962891</ele>
        <time>2013-01-31T11:23:29Z</time>
      </trkpt>
      <trkpt lat="44.43825" lon="6.02493">
        <ele>582.6962891</ele>
        <time>2013-01-31T11:23:36Z</time>
      </trkpt>
      <trkpt lat="44.43815" lon="6.02487">
        <ele>581.7348633</ele>
        <time>2013-01-31T11:23:38Z</time>
      </trkpt>
      <trkpt lat="44.43716" lon="6.02405">
        <ele>581.7348633</ele>
        <time>2013-01-31T11:24:00Z</time>
      </trkpt>
      <trkpt lat="44.43708" lon="6.02399">
        <ele>580.2929688</ele>
        <time>2013-01-31T11:24:02Z</time>
      </trkpt>
      <trkpt lat="44.43681" lon="6.02392">
        <ele>580.7736816</ele>
        <time>2013-01-31T11:24:10Z</time>
      </trkpt>
      <trkpt lat="44.43674" lon="6.02409">
        <ele>580.2929688</ele>
        <time>2013-01-31T11:24:14Z</time>
      </trkpt>
      <trkpt lat="44.43674" lon="6.02424">
        <ele>582.2155762</ele>
        <time>2013-01-31T11:24:17Z</time>
      </trkpt>
      <trkpt lat="44.4365" lon="6.02476">
        <ele>580.7736816</ele>
        <time>2013-01-31T11:24:30Z</time>
      </trkpt>
      <trkpt lat="44.43611" lon="6.02465">
        <ele>581.2543945</ele>
        <time>2013-01-31T11:24:42Z</time>
      </trkpt>
      <trkpt lat="44.43591" lon="6.02461">
        <ele>583.1767578</ele>
        <time>2013-01-31T11:24:47Z</time>
      </trkpt>
      <trkpt lat="44.43474" lon="6.02425">
        <ele>582.6962891</ele>
        <time>2013-01-31T11:25:14Z</time>
      </trkpt>
      <trkpt lat="44.43383" lon="6.02365">
        <ele>583.6574707</ele>
        <time>2013-01-31T11:25:37Z</time>
      </trkpt>
      <trkpt lat="44.43294" lon="6.0226">
        <ele>585.5800781</ele>
        <time>2013-01-31T11:26:04Z</time>
      </trkpt>
      <trkpt lat="44.4327" lon="6.02229">
        <ele>585.5800781</ele>
        <time>2013-01-31T11:26:12Z</time>
      </trkpt>
      <trkpt lat="44.43267" lon="6.02195">
        <ele>585.5800781</ele>
        <time>2013-01-31T11:26:17Z</time>
      </trkpt>
      <trkpt lat="44.43268" lon="6.02175">
        <ele>585.5800781</ele>
        <time>2013-01-31T11:26:20Z</time>
      </trkpt>
      <trkpt lat="44.43264" lon="6.02145">
        <ele>585.0996094</ele>
        <time>2013-01-31T11:26:24Z</time>
      </trkpt>
      <trkpt lat="44.43217" lon="6.02005">
        <ele>584.1381836</ele>
        <time>2013-01-31T11:26:42Z</time>
      </trkpt>
      <trkpt lat="44.43155" lon="6.01848">
        <ele>584.1381836</ele>
        <time>2013-01-31T11:27:05Z</time>
      </trkpt>
      <trkpt lat="44.43151" lon="6.01842">
        <ele>584.1381836</ele>
        <time>2013-01-31T11:27:06Z</time>
      </trkpt>
      <trkpt lat="44.43083" lon="6.01739">
        <ele>585.0996094</ele>
        <time>2013-01-31T11:27:26Z</time>
      </trkpt>
      <trkpt lat="44.4302" lon="6.01662">
        <ele>585.0996094</ele>
        <time>2013-01-31T11:27:45Z</time>
      </trkpt>
      <trkpt lat="44.42983" lon="6.01615">
        <ele>585.5800781</ele>
        <time>2013-01-31T11:27:56Z</time>
      </trkpt>
      <trkpt lat="44.42916" lon="6.01535">
        <ele>585.0996094</ele>
        <time>2013-01-31T11:28:15Z</time>
      </trkpt>
      <trkpt lat="44.42822" lon="6.01403">
        <ele>582.6962891</ele>
        <time>2013-01-31T11:28:39Z</time>
      </trkpt>
      <trkpt lat="44.42783" lon="6.01308">
        <ele>584.1381836</ele>
        <time>2013-01-31T11:28:55Z</time>
      </trkpt>
      <trkpt lat="44.42772" lon="6.01281">
        <ele>584.1381836</ele>
        <time>2013-01-31T11:29:00Z</time>
      </trkpt>
      <trkpt lat="44.42747" lon="6.01217">
        <ele>581.7348633</ele>
        <time>2013-01-31T11:29:09Z</time>
      </trkpt>
      <trkpt lat="44.42708" lon="6.01121">
        <ele>578.3703613</ele>
        <time>2013-01-31T11:29:19Z</time>
      </trkpt>
      <trkpt lat="44.4268" lon="6.01062">
        <ele>578.3703613</ele>
        <time>2013-01-31T11:29:27Z</time>
      </trkpt>
      <trkpt lat="44.42611" lon="6.00968">
        <ele>578.8510742</ele>
        <time>2013-01-31T11:29:46Z</time>
      </trkpt>
      <trkpt lat="44.42595" lon="6.00949">
        <ele>579.8122559</ele>
        <time>2013-01-31T11:29:51Z</time>
      </trkpt>
      <trkpt lat="44.42544" lon="6.00884">
        <ele>580.7736816</ele>
        <time>2013-01-31T11:30:09Z</time>
      </trkpt>
      <trkpt lat="44.42514" lon="6.00844">
        <ele>583.1767578</ele>
        <time>2013-01-31T11:30:25Z</time>
      </trkpt>
      <trkpt lat="44.42482" lon="6.00798">
        <ele>586.060791</ele>
        <time>2013-01-31T11:30:42Z</time>
      </trkpt>
      <trkpt lat="44.42478" lon="6.0074">
        <ele>588.4643555</ele>
        <time>2013-01-31T11:30:57Z</time>
      </trkpt>
      <trkpt lat="44.42469" lon="6.00675">
        <ele>589.4255371</ele>
        <time>2013-01-31T11:31:14Z</time>
      </trkpt>
      <trkpt lat="44.42443" lon="6.006">
        <ele>590.3869629</ele>
        <time>2013-01-31T11:31:31Z</time>
      </trkpt>
      <trkpt lat="44.42418" lon="6.00521">
        <ele>591.3481445</ele>
        <time>2013-01-31T11:31:49Z</time>
      </trkpt>
      <trkpt lat="44.42409" lon="6.00492">
        <ele>591.8288574</ele>
        <time>2013-01-31T11:31:55Z</time>
      </trkpt>
      <trkpt lat="44.424" lon="6.00465">
        <ele>590.8674316</ele>
        <time>2013-01-31T11:32:00Z</time>
      </trkpt>
      <trkpt lat="44.42359" lon="6.00343">
        <ele>588.9450684</ele>
        <time>2013-01-31T11:32:19Z</time>
      </trkpt>
      <trkpt lat="44.42349" lon="6.00319">
        <ele>589.4255371</ele>
        <time>2013-01-31T11:32:22Z</time>
      </trkpt>
      <trkpt lat="44.4234" lon="6.00278">
        <ele>588.9450684</ele>
        <time>2013-01-31T11:32:27Z</time>
      </trkpt>
      <trkpt lat="44.42299" lon="6.00147">
        <ele>586.5415039</ele>
        <time>2013-01-31T11:32:43Z</time>
      </trkpt>
      <trkpt lat="44.42252" lon="6.00017">
        <ele>586.060791</ele>
        <time>2013-01-31T11:33:01Z</time>
      </trkpt>
      <trkpt lat="44.42224" lon="5.9993">
        <ele>586.060791</ele>
        <time>2013-01-31T11:33:15Z</time>
      </trkpt>
      <trkpt lat="44.42178" lon="5.99794">
        <ele>586.060791</ele>
        <time>2013-01-31T11:33:36Z</time>
      </trkpt>
      <trkpt lat="44.42137" lon="5.99671">
        <ele>586.5415039</ele>
        <time>2013-01-31T11:33:56Z</time>
      </trkpt>
      <trkpt lat="44.42131" lon="5.99653">
        <ele>586.060791</ele>
        <time>2013-01-31T11:33:59Z</time>
      </trkpt>
      <trkpt lat="44.42086" lon="5.99521">
        <ele>586.060791</ele>
        <time>2013-01-31T11:34:22Z</time>
      </trkpt>
      <trkpt lat="44.42071" lon="5.99474">
        <ele>585.5800781</ele>
        <time>2013-01-31T11:34:30Z</time>
      </trkpt>
      <trkpt lat="44.42054" lon="5.99434">
        <ele>585.5800781</ele>
        <time>2013-01-31T11:34:38Z</time>
      </trkpt>
      <trkpt lat="44.42054" lon="5.99389">
        <ele>587.5026855</ele>
        <time>2013-01-31T11:34:46Z</time>
      </trkpt>
      <trkpt lat="44.4203" lon="5.99336">
        <ele>587.9833984</ele>
        <time>2013-01-31T11:34:59Z</time>
      </trkpt>
      <trkpt lat="44.42026" lon="5.99322">
        <ele>587.0219727</ele>
        <time>2013-01-31T11:35:01Z</time>
      </trkpt>
      <trkpt lat="44.41979" lon="5.99182">
        <ele>584.1381836</ele>
        <time>2013-01-31T11:35:17Z</time>
      </trkpt>
      <trkpt lat="44.41953" lon="5.99108">
        <ele>581.7348633</ele>
        <time>2013-01-31T11:35:26Z</time>
      </trkpt>
      <trkpt lat="44.4192" lon="5.99004">
        <ele>582.2155762</ele>
        <time>2013-01-31T11:35:41Z</time>
      </trkpt>
      <trkpt lat="44.41912" lon="5.98978">
        <ele>583.6574707</ele>
        <time>2013-01-31T11:35:45Z</time>
      </trkpt>
      <trkpt lat="44.41902" lon="5.98954">
        <ele>583.6574707</ele>
        <time>2013-01-31T11:35:49Z</time>
      </trkpt>
      <trkpt lat="44.41897" lon="5.98936">
        <ele>583.6574707</ele>
        <time>2013-01-31T11:35:52Z</time>
      </trkpt>
      <trkpt lat="44.41905" lon="5.98888">
        <ele>583.1767578</ele>
        <time>2013-01-31T11:36:01Z</time>
      </trkpt>
      <trkpt lat="44.41912" lon="5.98872">
        <ele>584.1381836</ele>
        <time>2013-01-31T11:36:04Z</time>
      </trkpt>
      <trkpt lat="44.41927" lon="5.98831">
        <ele>584.1381836</ele>
        <time>2013-01-31T11:36:11Z</time>
      </trkpt>
      <trkpt lat="44.41932" lon="5.98812">
        <ele>584.1381836</ele>
        <time>2013-01-31T11:36:14Z</time>
      </trkpt>
      <trkpt lat="44.41947" lon="5.98669">
        <ele>585.0996094</ele>
        <time>2013-01-31T11:36:35Z</time>
      </trkpt>
      <trkpt lat="44.41941" lon="5.98539">
        <ele>585.0996094</ele>
        <time>2013-01-31T11:36:54Z</time>
      </trkpt>
      <trkpt lat="44.41934" lon="5.98374">
        <ele>585.0996094</ele>
        <time>2013-01-31T11:37:18Z</time>
      </trkpt>
      <trkpt lat="44.41927" lon="5.98184">
        <ele>584.6188965</ele>
        <time>2013-01-31T11:37:44Z</time>
      </trkpt>
      <trkpt lat="44.41923" lon="5.98134">
        <ele>585.5800781</ele>
        <time>2013-01-31T11:37:51Z</time>
      </trkpt>
      <trkpt lat="44.41918" lon="5.97976">
        <ele>585.5800781</ele>
        <time>2013-01-31T11:38:13Z</time>
      </trkpt>
      <trkpt lat="44.41911" lon="5.97772">
        <ele>586.060791</ele>
        <time>2013-01-31T11:38:41Z</time>
      </trkpt>
      <trkpt lat="44.41903" lon="5.97616">
        <ele>586.060791</ele>
        <time>2013-01-31T11:39:03Z</time>
      </trkpt>
      <trkpt lat="44.419" lon="5.9755">
        <ele>585.5800781</ele>
        <time>2013-01-31T11:39:12Z</time>
      </trkpt>
      <trkpt lat="44.41893" lon="5.97423">
        <ele>585.0996094</ele>
        <time>2013-01-31T11:39:31Z</time>
      </trkpt>
      <trkpt lat="44.41871" lon="5.9726">
        <ele>584.6188965</ele>
        <time>2013-01-31T11:39:54Z</time>
      </trkpt>
      <trkpt lat="44.41833" lon="5.9713">
        <ele>584.6188965</ele>
        <time>2013-01-31T11:40:14Z</time>
      </trkpt>
      <trkpt lat="44.41782" lon="5.97011">
        <ele>582.6962891</ele>
        <time>2013-01-31T11:40:31Z</time>
      </trkpt>
      <trkpt lat="44.41736" lon="5.96923">
        <ele>582.6962891</ele>
        <time>2013-01-31T11:40:46Z</time>
      </trkpt>
      <trkpt lat="44.41685" lon="5.96844">
        <ele>584.1381836</ele>
        <time>2013-01-31T11:41:04Z</time>
      </trkpt>
      <trkpt lat="44.41685" lon="5.96798">
        <ele>584.6188965</ele>
        <time>2013-01-31T11:41:17Z</time>
      </trkpt>
      <trkpt lat="44.41726" lon="5.96719">
        <ele>582.6962891</ele>
        <time>2013-01-31T11:41:35Z</time>
      </trkpt>
      <trkpt lat="44.4174" lon="5.96689">
        <ele>587.0219727</ele>
        <time>2013-01-31T11:41:42Z</time>
      </trkpt>
      <trkpt lat="44.4176" lon="5.9664">
        <ele>587.5026855</ele>
        <time>2013-01-31T11:41:55Z</time>
      </trkpt>
      <trkpt lat="44.41784" lon="5.96584">
        <ele>589.90625</ele>
        <time>2013-01-31T11:42:11Z</time>
      </trkpt>
      <trkpt lat="44.41817" lon="5.96519">
        <ele>591.3481445</ele>
        <time>2013-01-31T11:42:31Z</time>
      </trkpt>
      <trkpt lat="44.41829" lon="5.96499">
        <ele>592.7902832</ele>
        <time>2013-01-31T11:42:37Z</time>
      </trkpt>
      <trkpt lat="44.41843" lon="5.96472">
        <ele>593.7514648</ele>
        <time>2013-01-31T11:42:46Z</time>
      </trkpt>
      <trkpt lat="44.4185" lon="5.96458">
        <ele>594.7126465</ele>
        <time>2013-01-31T11:42:50Z</time>
      </trkpt>
      <trkpt lat="44.41881" lon="5.96382">
        <ele>594.7126465</ele>
        <time>2013-01-31T11:43:10Z</time>
      </trkpt>
      <trkpt lat="44.41909" lon="5.96331">
        <ele>595.6740723</ele>
        <time>2013-01-31T11:43:27Z</time>
      </trkpt>
      <trkpt lat="44.41942" lon="5.9628">
        <ele>597.5966797</ele>
        <time>2013-01-31T11:43:45Z</time>
      </trkpt>
      <trkpt lat="44.41982" lon="5.96216">
        <ele>599.0385742</ele>
        <time>2013-01-31T11:44:05Z</time>
      </trkpt>
      <trkpt lat="44.42012" lon="5.96151">
        <ele>600.9611816</ele>
        <time>2013-01-31T11:44:23Z</time>
      </trkpt>
      <trkpt lat="44.42053" lon="5.96085">
        <ele>602.8837891</ele>
        <time>2013-01-31T11:44:44Z</time>
      </trkpt>
      <trkpt lat="44.42081" lon="5.9603">
        <ele>604.3261719</ele>
        <time>2013-01-31T11:45:01Z</time>
      </trkpt>
      <trkpt lat="44.42085" lon="5.95983">
        <ele>602.4030762</ele>
        <time>2013-01-31T11:45:14Z</time>
      </trkpt>
      <trkpt lat="44.4208" lon="5.95975">
        <ele>604.8066406</ele>
        <time>2013-01-31T11:45:17Z</time>
      </trkpt>
      <trkpt lat="44.42072" lon="5.95966">
        <ele>605.7680664</ele>
        <time>2013-01-31T11:45:21Z</time>
      </trkpt>
      <trkpt lat="44.4205" lon="5.95962">
        <ele>605.7680664</ele>
        <time>2013-01-31T11:45:30Z</time>
      </trkpt>
      <trkpt lat="44.42037" lon="5.95967">
        <ele>607.2099609</ele>
        <time>2013-01-31T11:45:37Z</time>
      </trkpt>
      <trkpt lat="44.42026" lon="5.95964">
        <ele>608.6518555</ele>
        <time>2013-01-31T11:45:42Z</time>
      </trkpt>
      <trkpt lat="44.42024" lon="5.95963">
        <ele>609.1325684</ele>
        <time>2013-01-31T11:45:43Z</time>
      </trkpt>
      <trkpt lat="44.42015" lon="5.95948">
        <ele>611.0551758</ele>
        <time>2013-01-31T11:45:49Z</time>
      </trkpt>
      <trkpt lat="44.42009" lon="5.95932">
        <ele>611.5358887</ele>
        <time>2013-01-31T11:45:55Z</time>
      </trkpt>
      <trkpt lat="44.42006" lon="5.95926">
        <ele>612.0166016</ele>
        <time>2013-01-31T11:45:58Z</time>
      </trkpt>
      <trkpt lat="44.42002" lon="5.95918">
        <ele>612.0166016</ele>
        <time>2013-01-31T11:46:02Z</time>
      </trkpt>
      <trkpt lat="44.41998" lon="5.95911">
        <ele>613.4584961</ele>
        <time>2013-01-31T11:46:05Z</time>
      </trkpt>
      <trkpt lat="44.41979" lon="5.95884">
        <ele>615.8618164</ele>
        <time>2013-01-31T11:46:19Z</time>
      </trkpt>
      <trkpt lat="44.41967" lon="5.95857">
        <ele>619.7070313</ele>
        <time>2013-01-31T11:46:30Z</time>
      </trkpt>
      <trkpt lat="44.41966" lon="5.95856">
        <ele>619.7070313</ele>
        <time>2013-01-31T11:46:31Z</time>
      </trkpt>
      <trkpt lat="44.41958" lon="5.95852">
        <ele>621.1491699</ele>
        <time>2013-01-31T11:46:37Z</time>
      </trkpt>
      <trkpt lat="44.4193" lon="5.95824">
        <ele>621.1491699</ele>
        <time>2013-01-31T11:46:52Z</time>
      </trkpt>
      <trkpt lat="44.41871" lon="5.95794">
        <ele>621.6296387</ele>
        <time>2013-01-31T11:47:12Z</time>
      </trkpt>
      <trkpt lat="44.41841" lon="5.95783">
        <ele>621.1491699</ele>
        <time>2013-01-31T11:47:19Z</time>
      </trkpt>
      <trkpt lat="44.41836" lon="5.95781">
        <ele>621.1491699</ele>
        <time>2013-01-31T11:47:21Z</time>
      </trkpt>
      <trkpt lat="44.41821" lon="5.95776">
        <ele>620.668457</ele>
        <time>2013-01-31T11:47:25Z</time>
      </trkpt>
      <trkpt lat="44.41804" lon="5.95771">
        <ele>620.1877441</ele>
        <time>2013-01-31T11:47:29Z</time>
      </trkpt>
      <trkpt lat="44.41775" lon="5.95761">
        <ele>620.668457</ele>
        <time>2013-01-31T11:47:36Z</time>
      </trkpt>
      <trkpt lat="44.41745" lon="5.95727">
        <ele>619.7070313</ele>
        <time>2013-01-31T11:47:43Z</time>
      </trkpt>
      <trkpt lat="44.41736" lon="5.95722">
        <ele>619.7070313</ele>
        <time>2013-01-31T11:47:46Z</time>
      </trkpt>
      <trkpt lat="44.41718" lon="5.95713">
        <ele>619.2263184</ele>
        <time>2013-01-31T11:47:51Z</time>
      </trkpt>
      <trkpt lat="44.41702" lon="5.95705">
        <ele>619.2263184</ele>
        <time>2013-01-31T11:47:56Z</time>
      </trkpt>
      <trkpt lat="44.41691" lon="5.95699">
        <ele>619.2263184</ele>
        <time>2013-01-31T11:47:59Z</time>
      </trkpt>
      <trkpt lat="44.41671" lon="5.95677">
        <ele>619.2263184</ele>
        <time>2013-01-31T11:48:03Z</time>
      </trkpt>
      <trkpt lat="44.41667" lon="5.95669">
        <ele>618.7456055</ele>
        <time>2013-01-31T11:48:05Z</time>
      </trkpt>
      <trkpt lat="44.4165" lon="5.95663">
        <ele>618.7456055</ele>
        <time>2013-01-31T11:48:11Z</time>
      </trkpt>
      <trkpt lat="44.41627" lon="5.95659">
        <ele>618.7456055</ele>
        <time>2013-01-31T11:48:16Z</time>
      </trkpt>
      <trkpt lat="44.41603" lon="5.95651">
        <ele>616.822998</ele>
        <time>2013-01-31T11:48:20Z</time>
      </trkpt>
      <trkpt lat="44.41591" lon="5.95645">
        <ele>614.9003906</ele>
        <time>2013-01-31T11:48:22Z</time>
      </trkpt>
      <trkpt lat="44.41584" lon="5.95644">
        <ele>615.8618164</ele>
        <time>2013-01-31T11:48:23Z</time>
      </trkpt>
      <trkpt lat="44.41556" lon="5.95646">
        <ele>615.3811035</ele>
        <time>2013-01-31T11:48:27Z</time>
      </trkpt>
      <trkpt lat="44.41541" lon="5.95649">
        <ele>614.4196777</ele>
        <time>2013-01-31T11:48:29Z</time>
      </trkpt>
      <trkpt lat="44.41525" lon="5.9565">
        <ele>612.9777832</ele>
        <time>2013-01-31T11:48:31Z</time>
      </trkpt>
      <trkpt lat="44.41477" lon="5.95656">
        <ele>609.6132813</ele>
        <time>2013-01-31T11:48:37Z</time>
      </trkpt>
      <trkpt lat="44.4147" lon="5.95656">
        <ele>609.6132813</ele>
        <time>2013-01-31T11:48:38Z</time>
      </trkpt>
      <trkpt lat="44.41433" lon="5.95639">
        <ele>607.6906738</ele>
        <time>2013-01-31T11:48:43Z</time>
      </trkpt>
      <trkpt lat="44.41427" lon="5.95632">
        <ele>606.729248</ele>
        <time>2013-01-31T11:48:44Z</time>
      </trkpt>
      <trkpt lat="44.41404" lon="5.95601">
        <ele>609.1325684</ele>
        <time>2013-01-31T11:48:48Z</time>
      </trkpt>
      <trkpt lat="44.4139" lon="5.95564">
        <ele>606.2485352</ele>
        <time>2013-01-31T11:48:52Z</time>
      </trkpt>
      <trkpt lat="44.41388" lon="5.95556">
        <ele>606.2485352</ele>
        <time>2013-01-31T11:48:53Z</time>
      </trkpt>
      <trkpt lat="44.41366" lon="5.95539">
        <ele>606.2485352</ele>
        <time>2013-01-31T11:48:57Z</time>
      </trkpt>
      <trkpt lat="44.41308" lon="5.95526">
        <ele>607.2099609</ele>
        <time>2013-01-31T11:49:10Z</time>
      </trkpt>
      <trkpt lat="44.41285" lon="5.95522">
        <ele>610.09375</ele>
        <time>2013-01-31T11:49:22Z</time>
      </trkpt>
      <trkpt lat="44.41283" lon="5.95521">
        <ele>610.5744629</ele>
        <time>2013-01-31T11:49:40Z</time>
      </trkpt>
      <trkpt lat="44.41283" lon="5.95521">
        <ele>609.6132813</ele>
        <time>2013-01-31T11:49:42Z</time>
      </trkpt>
      <trkpt lat="44.41279" lon="5.95538">
        <ele>608.1713867</ele>
        <time>2013-01-31T11:49:46Z</time>
      </trkpt>
      <trkpt lat="44.41282" lon="5.95567">
        <ele>605.2873535</ele>
        <time>2013-01-31T11:49:50Z</time>
      </trkpt>
      <trkpt lat="44.41285" lon="5.95585">
        <ele>603.364502</ele>
        <time>2013-01-31T11:49:52Z</time>
      </trkpt>
      <trkpt lat="44.41285" lon="5.95636">
        <ele>603.364502</ele>
        <time>2013-01-31T11:50:02Z</time>
      </trkpt>
      <trkpt lat="44.41284" lon="5.95646">
        <ele>601.9226074</ele>
        <time>2013-01-31T11:50:08Z</time>
      </trkpt>
      <trkpt lat="44.41285" lon="5.95632">
        <ele>602.8837891</ele>
        <time>2013-01-31T11:50:15Z</time>
      </trkpt>
      <trkpt lat="44.41285" lon="5.95601">
        <ele>603.364502</ele>
        <time>2013-01-31T11:50:24Z</time>
      </trkpt>
      <trkpt lat="44.41279" lon="5.95551">
        <ele>606.729248</ele>
        <time>2013-01-31T11:50:40Z</time>
      </trkpt>
      <trkpt lat="44.41279" lon="5.95548">
        <ele>606.729248</ele>
        <time>2013-01-31T11:50:41Z</time>
      </trkpt>
      <trkpt lat="44.41279" lon="5.95537">
        <ele>607.2099609</ele>
        <time>2013-01-31T11:50:45Z</time>
      </trkpt>
      <trkpt lat="44.41279" lon="5.95525">
        <ele>609.6132813</ele>
        <time>2013-01-31T11:50:50Z</time>
      </trkpt>
      <trkpt lat="44.41279" lon="5.95521">
        <ele>607.6906738</ele>
        <time>2013-01-31T11:50:55Z</time>
      </trkpt>
      <trkpt lat="44.41281" lon="5.95507">
        <ele>609.1325684</ele>
        <time>2013-01-31T11:50:57Z</time>
      </trkpt>
      <trkpt lat="44.41282" lon="5.95502">
        <ele>611.5358887</ele>
        <time>2013-01-31T11:50:59Z</time>
      </trkpt>
      <trkpt lat="44.41283" lon="5.95442">
        <ele>614.4196777</ele>
        <time>2013-01-31T11:51:21Z</time>
      </trkpt>
      <trkpt lat="44.41289" lon="5.954">
        <ele>616.3422852</ele>
        <time>2013-01-31T11:51:36Z</time>
      </trkpt>
      <trkpt lat="44.41294" lon="5.95356">
        <ele>617.7841797</ele>
        <time>2013-01-31T11:51:52Z</time>
      </trkpt>
      <trkpt lat="44.41302" lon="5.95326">
        <ele>620.668457</ele>
        <time>2013-01-31T11:52:03Z</time>
      </trkpt>
      <trkpt lat="44.41303" lon="5.95324">
        <ele>620.668457</ele>
        <time>2013-01-31T11:52:04Z</time>
      </trkpt>
      <trkpt lat="44.41306" lon="5.95318">
        <ele>620.668457</ele>
        <time>2013-01-31T11:52:07Z</time>
      </trkpt>
      <trkpt lat="44.41303" lon="5.95293">
        <ele>622.5910645</ele>
        <time>2013-01-31T11:52:17Z</time>
      </trkpt>
      <trkpt lat="44.4129" lon="5.95324">
        <ele>623.5524902</ele>
        <time>2013-01-31T11:52:30Z</time>
      </trkpt>
      <trkpt lat="44.41277" lon="5.95347">
        <ele>625.9555664</ele>
        <time>2013-01-31T11:52:43Z</time>
      </trkpt>
      <trkpt lat="44.41277" lon="5.95347">
        <ele>624.5136719</ele>
        <time>2013-01-31T11:52:45Z</time>
      </trkpt>
      <trkpt lat="44.41282" lon="5.9534">
        <ele>621.1491699</ele>
        <time>2013-01-31T11:52:52Z</time>
      </trkpt>
      <trkpt lat="44.41284" lon="5.95338">
        <ele>621.1491699</ele>
        <time>2013-01-31T11:52:53Z</time>
      </trkpt>
      <trkpt lat="44.41286" lon="5.95332">
        <ele>619.7070313</ele>
        <time>2013-01-31T11:52:56Z</time>
      </trkpt>
      <trkpt lat="44.41239" lon="5.95444">
        <ele>617.7841797</ele>
        <time>2013-01-31T11:53:00Z</time>
      </trkpt>
      <trkpt lat="44.41201" lon="5.95445">
        <ele>613.4584961</ele>
        <time>2013-01-31T11:53:06Z</time>
      </trkpt>
      <trkpt lat="44.41143" lon="5.95433">
        <ele>611.5358887</ele>
        <time>2013-01-31T11:53:13Z</time>
      </trkpt>
      <trkpt lat="44.41117" lon="5.95433">
        <ele>609.6132813</ele>
        <time>2013-01-31T11:53:16Z</time>
      </trkpt>
      <trkpt lat="44.41108" lon="5.95434">
        <ele>607.2099609</ele>
        <time>2013-01-31T11:53:17Z</time>
      </trkpt>
      <trkpt lat="44.41082" lon="5.9544">
        <ele>606.729248</ele>
        <time>2013-01-31T11:53:20Z</time>
      </trkpt>
      <trkpt lat="44.41057" lon="5.95434">
        <ele>603.364502</ele>
        <time>2013-01-31T11:53:23Z</time>
      </trkpt>
      <trkpt lat="44.4104" lon="5.95423">
        <ele>601.9226074</ele>
        <time>2013-01-31T11:53:25Z</time>
      </trkpt>
      <trkpt lat="44.41004" lon="5.95392">
        <ele>597.5966797</ele>
        <time>2013-01-31T11:53:29Z</time>
      </trkpt>
      <trkpt lat="44.40996" lon="5.95384">
        <ele>597.5966797</ele>
        <time>2013-01-31T11:53:30Z</time>
      </trkpt>
      <trkpt lat="44.40971" lon="5.9536">
        <ele>597.1159668</ele>
        <time>2013-01-31T11:53:33Z</time>
      </trkpt>
      <trkpt lat="44.40938" lon="5.95343">
        <ele>596.1547852</ele>
        <time>2013-01-31T11:53:37Z</time>
      </trkpt>
      <trkpt lat="44.40871" lon="5.95328">
        <ele>596.635498</ele>
        <time>2013-01-31T11:53:46Z</time>
      </trkpt>
      <trkpt lat="44.40786" lon="5.95345">
        <ele>592.7902832</ele>
        <time>2013-01-31T11:53:59Z</time>
      </trkpt>
      <trkpt lat="44.40743" lon="5.95357">
        <ele>590.3869629</ele>
        <time>2013-01-31T11:54:05Z</time>
      </trkpt>
      <trkpt lat="44.40706" lon="5.9539">
        <ele>589.4255371</ele>
        <time>2013-01-31T11:54:10Z</time>
      </trkpt>
      <trkpt lat="44.40671" lon="5.95476">
        <ele>586.060791</ele>
        <time>2013-01-31T11:54:19Z</time>
      </trkpt>
      <trkpt lat="44.40666" lon="5.95486">
        <ele>584.6188965</ele>
        <time>2013-01-31T11:54:21Z</time>
      </trkpt>
      <trkpt lat="44.40664" lon="5.95491">
        <ele>583.6574707</ele>
        <time>2013-01-31T11:54:30Z</time>
      </trkpt>
      <trkpt lat="44.40664" lon="5.95491">
        <ele>583.1767578</ele>
        <time>2013-01-31T11:55:00Z</time>
      </trkpt>
      <trkpt lat="44.40664" lon="5.95491">
        <ele>585.5800781</ele>
        <time>2013-01-31T11:55:19Z</time>
      </trkpt>
      <trkpt lat="44.40664" lon="5.95491">
        <ele>583.1767578</ele>
        <time>2013-01-31T11:55:21Z</time>
      </trkpt>
      <trkpt lat="44.40664" lon="5.95491">
        <ele>586.060791</ele>
        <time>2013-01-31T11:55:28Z</time>
      </trkpt>
      <trkpt lat="44.40664" lon="5.95491">
        <ele>583.6574707</ele>
        <time>2013-01-31T11:55:44Z</time>
      </trkpt>
      <trkpt lat="44.40663" lon="5.95494">
        <ele>585.0996094</ele>
        <time>2013-01-31T11:55:52Z</time>
      </trkpt>
      <trkpt lat="44.40606" lon="5.95458">
        <ele>584.6188965</ele>
        <time>2013-01-31T11:56:06Z</time>
      </trkpt>
      <trkpt lat="44.40582" lon="5.95438">
        <ele>583.6574707</ele>
        <time>2013-01-31T11:56:12Z</time>
      </trkpt>
      <trkpt lat="44.40511" lon="5.95359">
        <ele>587.0219727</ele>
        <time>2013-01-31T11:56:34Z</time>
      </trkpt>
      <trkpt lat="44.40471" lon="5.95275">
        <ele>589.90625</ele>
        <time>2013-01-31T11:56:54Z</time>
      </trkpt>
      <trkpt lat="44.40427" lon="5.95188">
        <ele>592.3095703</ele>
        <time>2013-01-31T11:57:18Z</time>
      </trkpt>
      <trkpt lat="44.40405" lon="5.95145">
        <ele>595.6740723</ele>
        <time>2013-01-31T11:57:30Z</time>
      </trkpt>
      <trkpt lat="44.404" lon="5.95135">
        <ele>598.0773926</ele>
        <time>2013-01-31T11:57:33Z</time>
      </trkpt>
      <trkpt lat="44.40368" lon="5.95058">
        <ele>599.0385742</ele>
        <time>2013-01-31T11:57:53Z</time>
      </trkpt>
      <trkpt lat="44.4034" lon="5.94995">
        <ele>601.4418945</ele>
        <time>2013-01-31T11:58:11Z</time>
      </trkpt>
      <trkpt lat="44.40309" lon="5.94927">
        <ele>603.8452148</ele>
        <time>2013-01-31T11:58:29Z</time>
      </trkpt>
      <trkpt lat="44.4028" lon="5.94864">
        <ele>604.8066406</ele>
        <time>2013-01-31T11:58:45Z</time>
      </trkpt>
      <trkpt lat="44.40263" lon="5.94829">
        <ele>604.3261719</ele>
        <time>2013-01-31T11:58:53Z</time>
      </trkpt>
      <trkpt lat="44.40254" lon="5.94816">
        <ele>604.8066406</ele>
        <time>2013-01-31T11:58:56Z</time>
      </trkpt>
      <trkpt lat="44.40225" lon="5.94772">
        <ele>604.8066406</ele>
        <time>2013-01-31T11:59:06Z</time>
      </trkpt>
      <trkpt lat="44.40192" lon="5.94735">
        <ele>604.8066406</ele>
        <time>2013-01-31T11:59:15Z</time>
      </trkpt>
      <trkpt lat="44.40106" lon="5.94667">
        <ele>605.2873535</ele>
        <time>2013-01-31T11:59:36Z</time>
      </trkpt>
      <trkpt lat="44.40031" lon="5.94629">
        <ele>604.8066406</ele>
        <time>2013-01-31T11:59:52Z</time>
      </trkpt>
      <trkpt lat="44.39976" lon="5.94603">
        <ele>604.8066406</ele>
        <time>2013-01-31T12:00:04Z</time>
      </trkpt>
      <trkpt lat="44.39933" lon="5.94583">
        <ele>603.364502</ele>
        <time>2013-01-31T12:00:12Z</time>
      </trkpt>
      <trkpt lat="44.39874" lon="5.94544">
        <ele>600</ele>
        <time>2013-01-31T12:00:21Z</time>
      </trkpt>
      <trkpt lat="44.39823" lon="5.94495">
        <ele>596.635498</ele>
        <time>2013-01-31T12:00:28Z</time>
      </trkpt>
      <trkpt lat="44.39816" lon="5.94487">
        <ele>596.635498</ele>
        <time>2013-01-31T12:00:29Z</time>
      </trkpt>
      <trkpt lat="44.39756" lon="5.94444">
        <ele>594.2321777</ele>
        <time>2013-01-31T12:00:36Z</time>
      </trkpt>
      <trkpt lat="44.39702" lon="5.94411">
        <ele>589.90625</ele>
        <time>2013-01-31T12:00:42Z</time>
      </trkpt>
      <trkpt lat="44.39693" lon="5.94406">
        <ele>589.90625</ele>
        <time>2013-01-31T12:00:43Z</time>
      </trkpt>
      <trkpt lat="44.39638" lon="5.94371">
        <ele>586.5415039</ele>
        <time>2013-01-31T12:00:49Z</time>
      </trkpt>
      <trkpt lat="44.39629" lon="5.94365">
        <ele>586.5415039</ele>
        <time>2013-01-31T12:00:50Z</time>
      </trkpt>
      <trkpt lat="44.39525" lon="5.9428">
        <ele>584.6188965</ele>
        <time>2013-01-31T12:01:04Z</time>
      </trkpt>
      <trkpt lat="44.39442" lon="5.94211">
        <ele>584.6188965</ele>
        <time>2013-01-31T12:01:20Z</time>
      </trkpt>
      <trkpt lat="44.39378" lon="5.94154">
        <ele>586.060791</ele>
        <time>2013-01-31T12:01:35Z</time>
      </trkpt>
      <trkpt lat="44.3929" lon="5.94085">
        <ele>584.1381836</ele>
        <time>2013-01-31T12:01:53Z</time>
      </trkpt>
      <trkpt lat="44.39275" lon="5.94074">
        <ele>584.1381836</ele>
        <time>2013-01-31T12:01:56Z</time>
      </trkpt>
      <trkpt lat="44.39197" lon="5.94006">
        <ele>584.1381836</ele>
        <time>2013-01-31T12:02:13Z</time>
      </trkpt>
      <trkpt lat="44.39172" lon="5.93983">
        <ele>584.1381836</ele>
        <time>2013-01-31T12:02:19Z</time>
      </trkpt>
      <trkpt lat="44.39106" lon="5.93926">
        <ele>584.6188965</ele>
        <time>2013-01-31T12:02:36Z</time>
      </trkpt>
      <trkpt lat="44.39038" lon="5.93869">
        <ele>584.6188965</ele>
        <time>2013-01-31T12:02:54Z</time>
      </trkpt>
      <trkpt lat="44.38997" lon="5.93836">
        <ele>585.0996094</ele>
        <time>2013-01-31T12:03:04Z</time>
      </trkpt>
      <trkpt lat="44.38907" lon="5.93762">
        <ele>584.6188965</ele>
        <time>2013-01-31T12:03:26Z</time>
      </trkpt>
      <trkpt lat="44.3882" lon="5.93689">
        <ele>584.1381836</ele>
        <time>2013-01-31T12:03:47Z</time>
      </trkpt>
      <trkpt lat="44.38758" lon="5.93636">
        <ele>586.060791</ele>
        <time>2013-01-31T12:04:06Z</time>
      </trkpt>
      <trkpt lat="44.38739" lon="5.9362">
        <ele>585.5800781</ele>
        <time>2013-01-31T12:04:13Z</time>
      </trkpt>
      <trkpt lat="44.38732" lon="5.93614">
        <ele>587.9833984</ele>
        <time>2013-01-31T12:04:16Z</time>
      </trkpt>
      <trkpt lat="44.38716" lon="5.93601">
        <ele>588.4643555</ele>
        <time>2013-01-31T12:04:24Z</time>
      </trkpt>
      <trkpt lat="44.38706" lon="5.93614">
        <ele>588.4643555</ele>
        <time>2013-01-31T12:04:30Z</time>
      </trkpt>
      <trkpt lat="44.38702" lon="5.93725">
        <ele>587.0219727</ele>
        <time>2013-01-31T12:04:50Z</time>
      </trkpt>
      <trkpt lat="44.38698" lon="5.93788">
        <ele>584.1381836</ele>
        <time>2013-01-31T12:04:59Z</time>
      </trkpt>
      <trkpt lat="44.38697" lon="5.93797">
        <ele>584.1381836</ele>
        <time>2013-01-31T12:05:00Z</time>
      </trkpt>
      <trkpt lat="44.38695" lon="5.93814">
        <ele>585.5800781</ele>
        <time>2013-01-31T12:05:02Z</time>
      </trkpt>
      <trkpt lat="44.38695" lon="5.9386">
        <ele>582.6962891</ele>
        <time>2013-01-31T12:05:07Z</time>
      </trkpt>
      <trkpt lat="44.38671" lon="5.93906">
        <ele>578.3703613</ele>
        <time>2013-01-31T12:05:13Z</time>
      </trkpt>
      <trkpt lat="44.38663" lon="5.93908">
        <ele>578.3703613</ele>
        <time>2013-01-31T12:05:14Z</time>
      </trkpt>
      <trkpt lat="44.38654" lon="5.9391">
        <ele>577.4091797</ele>
        <time>2013-01-31T12:05:15Z</time>
      </trkpt>
      <trkpt lat="44.38626" lon="5.93915">
        <ele>575.4863281</ele>
        <time>2013-01-31T12:05:18Z</time>
      </trkpt>
      <trkpt lat="44.38608" lon="5.93918">
        <ele>572.1218262</ele>
        <time>2013-01-31T12:05:20Z</time>
      </trkpt>
      <trkpt lat="44.38598" lon="5.9392">
        <ele>572.1218262</ele>
        <time>2013-01-31T12:05:21Z</time>
      </trkpt>
      <trkpt lat="44.38546" lon="5.93931">
        <ele>569.237793</ele>
        <time>2013-01-31T12:05:27Z</time>
      </trkpt>
      <trkpt lat="44.38531" lon="5.93934">
        <ele>567.7956543</ele>
        <time>2013-01-31T12:05:29Z</time>
      </trkpt>
      <trkpt lat="44.38504" lon="5.9395">
        <ele>565.3925781</ele>
        <time>2013-01-31T12:05:34Z</time>
      </trkpt>
      <trkpt lat="44.38502" lon="5.93975">
        <ele>564.9118652</ele>
        <time>2013-01-31T12:05:37Z</time>
      </trkpt>
      <trkpt lat="44.38507" lon="5.94061">
        <ele>564.9118652</ele>
        <time>2013-01-31T12:05:52Z</time>
      </trkpt>
      <trkpt lat="44.38502" lon="5.94116">
        <ele>566.3537598</ele>
        <time>2013-01-31T12:06:05Z</time>
      </trkpt>
      <trkpt lat="44.38502" lon="5.9412">
        <ele>566.3537598</ele>
        <time>2013-01-31T12:06:06Z</time>
      </trkpt>
      <trkpt lat="44.38501" lon="5.9413">
        <ele>566.8344727</ele>
        <time>2013-01-31T12:06:09Z</time>
      </trkpt>
      <trkpt lat="44.38495" lon="5.94189">
        <ele>567.7956543</ele>
        <time>2013-01-31T12:06:24Z</time>
      </trkpt>
      <trkpt lat="44.38492" lon="5.94211">
        <ele>566.3537598</ele>
        <time>2013-01-31T12:06:30Z</time>
      </trkpt>
      <trkpt lat="44.3849" lon="5.94252">
        <ele>565.873291</ele>
        <time>2013-01-31T12:06:38Z</time>
      </trkpt>
      <trkpt lat="44.38456" lon="5.94279">
        <ele>564.4311523</ele>
        <time>2013-01-31T12:06:46Z</time>
      </trkpt>
      <trkpt lat="44.38444" lon="5.94272">
        <ele>562.0280762</ele>
        <time>2013-01-31T12:06:48Z</time>
      </trkpt>
      <trkpt lat="44.38413" lon="5.94252">
        <ele>560.5859375</ele>
        <time>2013-01-31T12:06:53Z</time>
      </trkpt>
      <trkpt lat="44.38394" lon="5.94239">
        <ele>559.6247559</ele>
        <time>2013-01-31T12:06:56Z</time>
      </trkpt>
      <trkpt lat="44.38371" lon="5.94209">
        <ele>558.1828613</ele>
        <time>2013-01-31T12:07:00Z</time>
      </trkpt>
      <trkpt lat="44.3836" lon="5.94176">
        <ele>556.7407227</ele>
        <time>2013-01-31T12:07:03Z</time>
      </trkpt>
      <trkpt lat="44.38352" lon="5.94158">
        <ele>555.7792969</ele>
        <time>2013-01-31T12:07:05Z</time>
      </trkpt>
      <trkpt lat="44.38313" lon="5.94149">
        <ele>554.3374023</ele>
        <time>2013-01-31T12:07:12Z</time>
      </trkpt>
      <trkpt lat="44.38308" lon="5.94155">
        <ele>553.8566895</ele>
        <time>2013-01-31T12:07:13Z</time>
      </trkpt>
      <trkpt lat="44.38242" lon="5.94284">
        <ele>551.4533691</ele>
        <time>2013-01-31T12:07:30Z</time>
      </trkpt>
      <trkpt lat="44.38227" lon="5.94313">
        <ele>549.5307617</ele>
        <time>2013-01-31T12:07:34Z</time>
      </trkpt>
      <trkpt lat="44.38156" lon="5.94388">
        <ele>549.5307617</ele>
        <time>2013-01-31T12:07:50Z</time>
      </trkpt>
      <trkpt lat="44.38139" lon="5.94403">
        <ele>550.0114746</ele>
        <time>2013-01-31T12:07:54Z</time>
      </trkpt>
      <trkpt lat="44.38082" lon="5.94454">
        <ele>551.934082</ele>
        <time>2013-01-31T12:08:11Z</time>
      </trkpt>
      <trkpt lat="44.38069" lon="5.9447">
        <ele>551.4533691</ele>
        <time>2013-01-31T12:08:17Z</time>
      </trkpt>
      <trkpt lat="44.38036" lon="5.94572">
        <ele>552.8952637</ele>
        <time>2013-01-31T12:08:38Z</time>
      </trkpt>
      <trkpt lat="44.38" lon="5.94652">
        <ele>554.3374023</ele>
        <time>2013-01-31T12:08:56Z</time>
      </trkpt>
      <trkpt lat="44.37942" lon="5.94676">
        <ele>556.2600098</ele>
        <time>2013-01-31T12:09:12Z</time>
      </trkpt>
      <trkpt lat="44.37902" lon="5.94726">
        <ele>558.6633301</ele>
        <time>2013-01-31T12:09:29Z</time>
      </trkpt>
      <trkpt lat="44.37866" lon="5.94775">
        <ele>561.0666504</ele>
        <time>2013-01-31T12:09:47Z</time>
      </trkpt>
      <trkpt lat="44.37834" lon="5.94818">
        <ele>564.9118652</ele>
        <time>2013-01-31T12:10:06Z</time>
      </trkpt>
      <trkpt lat="44.37828" lon="5.9489">
        <ele>568.2763672</ele>
        <time>2013-01-31T12:10:27Z</time>
      </trkpt>
      <trkpt lat="44.37818" lon="5.94948">
        <ele>571.1604004</ele>
        <time>2013-01-31T12:10:48Z</time>
      </trkpt>
      <trkpt lat="44.37812" lon="5.94987">
        <ele>573.5639648</ele>
        <time>2013-01-31T12:11:02Z</time>
      </trkpt>
      <trkpt lat="44.37802" lon="5.95025">
        <ele>575.4863281</ele>
        <time>2013-01-31T12:11:17Z</time>
      </trkpt>
      <trkpt lat="44.3777" lon="5.95054">
        <ele>578.3703613</ele>
        <time>2013-01-31T12:11:34Z</time>
      </trkpt>
      <trkpt lat="44.37727" lon="5.95074">
        <ele>580.7736816</ele>
        <time>2013-01-31T12:11:53Z</time>
      </trkpt>
      <trkpt lat="44.37683" lon="5.95094">
        <ele>583.1767578</ele>
        <time>2013-01-31T12:12:13Z</time>
      </trkpt>
      <trkpt lat="44.37631" lon="5.95118">
        <ele>585.5800781</ele>
        <time>2013-01-31T12:12:34Z</time>
      </trkpt>
      <trkpt lat="44.37598" lon="5.95133">
        <ele>585.0996094</ele>
        <time>2013-01-31T12:12:47Z</time>
      </trkpt>
      <trkpt lat="44.3759" lon="5.95136">
        <ele>587.9833984</ele>
        <time>2013-01-31T12:12:50Z</time>
      </trkpt>
      <trkpt lat="44.37582" lon="5.9514">
        <ele>588.4643555</ele>
        <time>2013-01-31T12:12:53Z</time>
      </trkpt>
      <trkpt lat="44.37581" lon="5.95162">
        <ele>589.4255371</ele>
        <time>2013-01-31T12:13:00Z</time>
      </trkpt>
      <trkpt lat="44.37622" lon="5.95183">
        <ele>588.4643555</ele>
        <time>2013-01-31T12:13:15Z</time>
      </trkpt>
      <trkpt lat="44.37661" lon="5.95223">
        <ele>588.4643555</ele>
        <time>2013-01-31T12:13:31Z</time>
      </trkpt>
      <trkpt lat="44.37678" lon="5.95244">
        <ele>591.3481445</ele>
        <time>2013-01-31T12:13:39Z</time>
      </trkpt>
      <trkpt lat="44.37683" lon="5.95249">
        <ele>592.3095703</ele>
        <time>2013-01-31T12:13:41Z</time>
      </trkpt>
      <trkpt lat="44.37689" lon="5.95255">
        <ele>590.8674316</ele>
        <time>2013-01-31T12:13:43Z</time>
      </trkpt>
      <trkpt lat="44.37714" lon="5.95277">
        <ele>592.7902832</ele>
        <time>2013-01-31T12:13:52Z</time>
      </trkpt>
      <trkpt lat="44.3773" lon="5.95285">
        <ele>592.3095703</ele>
        <time>2013-01-31T12:13:57Z</time>
      </trkpt>
      <trkpt lat="44.37791" lon="5.95324">
        <ele>591.8288574</ele>
        <time>2013-01-31T12:14:18Z</time>
      </trkpt>
      <trkpt lat="44.37803" lon="5.95334">
        <ele>593.270752</ele>
        <time>2013-01-31T12:14:22Z</time>
      </trkpt>
      <trkpt lat="44.37835" lon="5.95356">
        <ele>593.270752</ele>
        <time>2013-01-31T12:14:32Z</time>
      </trkpt>
      <trkpt lat="44.37879" lon="5.95351">
        <ele>594.2321777</ele>
        <time>2013-01-31T12:14:44Z</time>
      </trkpt>
      <trkpt lat="44.37938" lon="5.95338">
        <ele>596.1547852</ele>
        <time>2013-01-31T12:14:59Z</time>
      </trkpt>
      <trkpt lat="44.38007" lon="5.95322">
        <ele>593.7514648</ele>
        <time>2013-01-31T12:15:18Z</time>
      </trkpt>
      <trkpt lat="44.3802" lon="5.95322">
        <ele>597.5966797</ele>
        <time>2013-01-31T12:15:22Z</time>
      </trkpt>
      <trkpt lat="44.38023" lon="5.95322">
        <ele>597.5966797</ele>
        <time>2013-01-31T12:15:23Z</time>
      </trkpt>
      <trkpt lat="44.38073" lon="5.95333">
        <ele>598.5578613</ele>
        <time>2013-01-31T12:15:41Z</time>
      </trkpt>
      <trkpt lat="44.38126" lon="5.95357">
        <ele>600</ele>
        <time>2013-01-31T12:15:59Z</time>
      </trkpt>
      <trkpt lat="44.3817" lon="5.95398">
        <ele>600.9611816</ele>
        <time>2013-01-31T12:16:16Z</time>
      </trkpt>
      <trkpt lat="44.38199" lon="5.95431">
        <ele>600.4807129</ele>
        <time>2013-01-31T12:16:27Z</time>
      </trkpt>
      <trkpt lat="44.38232" lon="5.95468">
        <ele>598.5578613</ele>
        <time>2013-01-31T12:16:36Z</time>
      </trkpt>
      <trkpt lat="44.3825" lon="5.95489">
        <ele>597.1159668</ele>
        <time>2013-01-31T12:16:40Z</time>
      </trkpt>
      <trkpt lat="44.38276" lon="5.95506">
        <ele>595.6740723</ele>
        <time>2013-01-31T12:16:44Z</time>
      </trkpt>
      <trkpt lat="44.38319" lon="5.95495">
        <ele>591.3481445</ele>
        <time>2013-01-31T12:16:50Z</time>
      </trkpt>
      <trkpt lat="44.38339" lon="5.95481">
        <ele>589.90625</ele>
        <time>2013-01-31T12:16:53Z</time>
      </trkpt>
      <trkpt lat="44.38374" lon="5.95494">
        <ele>587.5026855</ele>
        <time>2013-01-31T12:16:57Z</time>
      </trkpt>
      <trkpt lat="44.38382" lon="5.955">
        <ele>586.060791</ele>
        <time>2013-01-31T12:16:58Z</time>
      </trkpt>
      <trkpt lat="44.38415" lon="5.95527">
        <ele>584.1381836</ele>
        <time>2013-01-31T12:17:02Z</time>
      </trkpt>
      <trkpt lat="44.38432" lon="5.95539">
        <ele>582.2155762</ele>
        <time>2013-01-31T12:17:04Z</time>
      </trkpt>
      <trkpt lat="44.38459" lon="5.95546">
        <ele>579.331543</ele>
        <time>2013-01-31T12:17:07Z</time>
      </trkpt>
      <trkpt lat="44.38476" lon="5.95543">
        <ele>577.8896484</ele>
        <time>2013-01-31T12:17:09Z</time>
      </trkpt>
      <trkpt lat="44.3849" lon="5.95539">
        <ele>576.4477539</ele>
        <time>2013-01-31T12:17:11Z</time>
      </trkpt>
      <trkpt lat="44.38518" lon="5.95556">
        <ele>573.5639648</ele>
        <time>2013-01-31T12:17:16Z</time>
      </trkpt>
      <trkpt lat="44.38527" lon="5.95568">
        <ele>573.083252</ele>
        <time>2013-01-31T12:17:18Z</time>
      </trkpt>
      <trkpt lat="44.38549" lon="5.95563">
        <ele>572.1218262</ele>
        <time>2013-01-31T12:17:22Z</time>
      </trkpt>
      <trkpt lat="44.38562" lon="5.95555">
        <ele>571.6408691</ele>
        <time>2013-01-31T12:17:24Z</time>
      </trkpt>
      <trkpt lat="44.3859" lon="5.9555">
        <ele>569.7185059</ele>
        <time>2013-01-31T12:17:28Z</time>
      </trkpt>
      <trkpt lat="44.38609" lon="5.9557">
        <ele>568.2763672</ele>
        <time>2013-01-31T12:17:31Z</time>
      </trkpt>
      <trkpt lat="44.38635" lon="5.956">
        <ele>566.3537598</ele>
        <time>2013-01-31T12:17:35Z</time>
      </trkpt>
      <trkpt lat="44.38687" lon="5.95661">
        <ele>562.9892578</ele>
        <time>2013-01-31T12:17:43Z</time>
      </trkpt>
      <trkpt lat="44.38757" lon="5.95705">
        <ele>563.4699707</ele>
        <time>2013-01-31T12:17:55Z</time>
      </trkpt>
      <trkpt lat="44.38802" lon="5.95727">
        <ele>564.4311523</ele>
        <time>2013-01-31T12:18:06Z</time>
      </trkpt>
      <trkpt lat="44.38865" lon="5.95783">
        <ele>562.9892578</ele>
        <time>2013-01-31T12:18:22Z</time>
      </trkpt>
      <trkpt lat="44.38886" lon="5.95801">
        <ele>562.9892578</ele>
        <time>2013-01-31T12:18:27Z</time>
      </trkpt>
      <trkpt lat="44.38909" lon="5.95821">
        <ele>562.0280762</ele>
        <time>2013-01-31T12:18:33Z</time>
      </trkpt>
      <trkpt lat="44.38955" lon="5.95882">
        <ele>563.9504395</ele>
        <time>2013-01-31T12:18:50Z</time>
      </trkpt>
      <trkpt lat="44.38988" lon="5.95932">
        <ele>566.8344727</ele>
        <time>2013-01-31T12:19:08Z</time>
      </trkpt>
      <trkpt lat="44.39019" lon="5.95983">
        <ele>569.7185059</ele>
        <time>2013-01-31T12:19:27Z</time>
      </trkpt>
      <trkpt lat="44.39045" lon="5.96039">
        <ele>571.1604004</ele>
        <time>2013-01-31T12:19:45Z</time>
      </trkpt>
      <trkpt lat="44.39077" lon="5.96093">
        <ele>571.1604004</ele>
        <time>2013-01-31T12:20:00Z</time>
      </trkpt>
      <trkpt lat="44.39091" lon="5.9611">
        <ele>570.1989746</ele>
        <time>2013-01-31T12:20:04Z</time>
      </trkpt>
      <trkpt lat="44.39135" lon="5.96156">
        <ele>568.7570801</ele>
        <time>2013-01-31T12:20:19Z</time>
      </trkpt>
      <trkpt lat="44.39153" lon="5.96175">
        <ele>568.2763672</ele>
        <time>2013-01-31T12:20:49Z</time>
      </trkpt>
      <trkpt lat="44.39197" lon="5.9622">
        <ele>569.237793</ele>
        <time>2013-01-31T12:21:04Z</time>
      </trkpt>
      <trkpt lat="44.39237" lon="5.96263">
        <ele>570.1989746</ele>
        <time>2013-01-31T12:21:20Z</time>
      </trkpt>
      <trkpt lat="44.3927" lon="5.96314">
        <ele>571.6408691</ele>
        <time>2013-01-31T12:21:37Z</time>
      </trkpt>
      <trkpt lat="44.39302" lon="5.96366">
        <ele>573.083252</ele>
        <time>2013-01-31T12:21:53Z</time>
      </trkpt>
      <trkpt lat="44.39341" lon="5.96431">
        <ele>575.0058594</ele>
        <time>2013-01-31T12:22:14Z</time>
      </trkpt>
      <trkpt lat="44.39376" lon="5.96489">
        <ele>577.4091797</ele>
        <time>2013-01-31T12:22:34Z</time>
      </trkpt>
      <trkpt lat="44.39413" lon="5.96554">
        <ele>578.3703613</ele>
        <time>2013-01-31T12:22:54Z</time>
      </trkpt>
      <trkpt lat="44.39434" lon="5.96601">
        <ele>581.7348633</ele>
        <time>2013-01-31T12:23:09Z</time>
      </trkpt>
      <trkpt lat="44.39456" lon="5.96663">
        <ele>584.6188965</ele>
        <time>2013-01-31T12:23:29Z</time>
      </trkpt>
      <trkpt lat="44.39459" lon="5.96669">
        <ele>587.0219727</ele>
        <time>2013-01-31T12:23:31Z</time>
      </trkpt>
      <trkpt lat="44.39487" lon="5.96741">
        <ele>589.4255371</ele>
        <time>2013-01-31T12:23:55Z</time>
      </trkpt>
      <trkpt lat="44.39489" lon="5.96744">
        <ele>589.4255371</ele>
        <time>2013-01-31T12:23:56Z</time>
      </trkpt>
      <trkpt lat="44.3951" lon="5.96769">
        <ele>590.8674316</ele>
        <time>2013-01-31T12:24:08Z</time>
      </trkpt>
      <trkpt lat="44.39561" lon="5.96762">
        <ele>589.90625</ele>
        <time>2013-01-31T12:24:24Z</time>
      </trkpt>
      <trkpt lat="44.39569" lon="5.96766">
        <ele>592.3095703</ele>
        <time>2013-01-31T12:24:27Z</time>
      </trkpt>
      <trkpt lat="44.3962" lon="5.96805">
        <ele>592.7902832</ele>
        <time>2013-01-31T12:24:44Z</time>
      </trkpt>
      <trkpt lat="44.3965" lon="5.96839">
        <ele>594.2321777</ele>
        <time>2013-01-31T12:24:56Z</time>
      </trkpt>
      <trkpt lat="44.39691" lon="5.96894">
        <ele>593.7514648</ele>
        <time>2013-01-31T12:25:15Z</time>
      </trkpt>
      <trkpt lat="44.39704" lon="5.96919">
        <ele>595.1933594</ele>
        <time>2013-01-31T12:25:22Z</time>
      </trkpt>
      <trkpt lat="44.3973" lon="5.96968">
        <ele>594.2321777</ele>
        <time>2013-01-31T12:25:35Z</time>
      </trkpt>
      <trkpt lat="44.39759" lon="5.97036">
        <ele>592.7902832</ele>
        <time>2013-01-31T12:25:47Z</time>
      </trkpt>
      <trkpt lat="44.39794" lon="5.97132">
        <ele>589.90625</ele>
        <time>2013-01-31T12:26:01Z</time>
      </trkpt>
      <trkpt lat="44.39838" lon="5.9722">
        <ele>587.0219727</ele>
        <time>2013-01-31T12:26:12Z</time>
      </trkpt>
      <trkpt lat="44.39888" lon="5.97269">
        <ele>586.060791</ele>
        <time>2013-01-31T12:26:23Z</time>
      </trkpt>
      <trkpt lat="44.39901" lon="5.97287">
        <ele>586.060791</ele>
        <time>2013-01-31T12:26:27Z</time>
      </trkpt>
      <trkpt lat="44.39914" lon="5.97303">
        <ele>586.060791</ele>
        <time>2013-01-31T12:26:31Z</time>
      </trkpt>
      <trkpt lat="44.39936" lon="5.97337">
        <ele>586.060791</ele>
        <time>2013-01-31T12:26:39Z</time>
      </trkpt>
      <trkpt lat="44.39952" lon="5.97348">
        <ele>586.5415039</ele>
        <time>2013-01-31T12:26:43Z</time>
      </trkpt>
      <trkpt lat="44.39992" lon="5.97382">
        <ele>583.1767578</ele>
        <time>2013-01-31T12:26:51Z</time>
      </trkpt>
      <trkpt lat="44.40015" lon="5.97422">
        <ele>581.2543945</ele>
        <time>2013-01-31T12:26:56Z</time>
      </trkpt>
      <trkpt lat="44.40049" lon="5.97497">
        <ele>579.331543</ele>
        <time>2013-01-31T12:27:05Z</time>
      </trkpt>
      <trkpt lat="44.40084" lon="5.97539">
        <ele>578.3703613</ele>
        <time>2013-01-31T12:27:11Z</time>
      </trkpt>
      <trkpt lat="44.40131" lon="5.97584">
        <ele>579.331543</ele>
        <time>2013-01-31T12:27:24Z</time>
      </trkpt>
      <trkpt lat="44.40169" lon="5.97628">
        <ele>580.7736816</ele>
        <time>2013-01-31T12:27:39Z</time>
      </trkpt>
      <trkpt lat="44.40222" lon="5.97699">
        <ele>579.8122559</ele>
        <time>2013-01-31T12:27:57Z</time>
      </trkpt>
      <trkpt lat="44.40263" lon="5.9777">
        <ele>580.2929688</ele>
        <time>2013-01-31T12:28:13Z</time>
      </trkpt>
      <trkpt lat="44.40293" lon="5.97823">
        <ele>581.2543945</ele>
        <time>2013-01-31T12:28:29Z</time>
      </trkpt>
      <trkpt lat="44.40322" lon="5.97877">
        <ele>583.1767578</ele>
        <time>2013-01-31T12:28:47Z</time>
      </trkpt>
      <trkpt lat="44.4035" lon="5.9792">
        <ele>585.0996094</ele>
        <time>2013-01-31T12:29:03Z</time>
      </trkpt>
      <trkpt lat="44.40377" lon="5.97971">
        <ele>587.0219727</ele>
        <time>2013-01-31T12:29:20Z</time>
      </trkpt>
      <trkpt lat="44.40397" lon="5.98004">
        <ele>586.060791</ele>
        <time>2013-01-31T12:29:29Z</time>
      </trkpt>
      <trkpt lat="44.40407" lon="5.98013">
        <ele>586.060791</ele>
        <time>2013-01-31T12:29:32Z</time>
      </trkpt>
      <trkpt lat="44.4042" lon="5.98019">
        <ele>585.0996094</ele>
        <time>2013-01-31T12:29:35Z</time>
      </trkpt>
      <trkpt lat="44.40462" lon="5.98025">
        <ele>583.1767578</ele>
        <time>2013-01-31T12:29:42Z</time>
      </trkpt>
      <trkpt lat="44.4047" lon="5.98027">
        <ele>582.6962891</ele>
        <time>2013-01-31T12:29:43Z</time>
      </trkpt>
      <trkpt lat="44.40501" lon="5.98054">
        <ele>581.7348633</ele>
        <time>2013-01-31T12:29:48Z</time>
      </trkpt>
      <trkpt lat="44.4057" lon="5.98137">
        <ele>579.331543</ele>
        <time>2013-01-31T12:30:02Z</time>
      </trkpt>
      <trkpt lat="44.40596" lon="5.98168">
        <ele>578.3703613</ele>
        <time>2013-01-31T12:30:09Z</time>
      </trkpt>
      <trkpt lat="44.40624" lon="5.98217">
        <ele>580.7736816</ele>
        <time>2013-01-31T12:30:24Z</time>
      </trkpt>
      <trkpt lat="44.40631" lon="5.98242">
        <ele>584.1381836</ele>
        <time>2013-01-31T12:30:34Z</time>
      </trkpt>
      <trkpt lat="44.40632" lon="5.98245">
        <ele>584.1381836</ele>
        <time>2013-01-31T12:30:35Z</time>
      </trkpt>
      <trkpt lat="44.40634" lon="5.98255">
        <ele>584.1381836</ele>
        <time>2013-01-31T12:30:39Z</time>
      </trkpt>
      <trkpt lat="44.40641" lon="5.9831">
        <ele>587.0219727</ele>
        <time>2013-01-31T12:30:58Z</time>
      </trkpt>
      <trkpt lat="44.40653" lon="5.98363">
        <ele>589.90625</ele>
        <time>2013-01-31T12:31:15Z</time>
      </trkpt>
      <trkpt lat="44.40662" lon="5.98386">
        <ele>590.3869629</ele>
        <time>2013-01-31T12:31:24Z</time>
      </trkpt>
      <trkpt lat="44.40671" lon="5.98412">
        <ele>591.3481445</ele>
        <time>2013-01-31T12:31:33Z</time>
      </trkpt>
      <trkpt lat="44.40679" lon="5.98432">
        <ele>591.3481445</ele>
        <time>2013-01-31T12:31:42Z</time>
      </trkpt>
      <trkpt lat="44.40689" lon="5.98456">
        <ele>595.1933594</ele>
        <time>2013-01-31T12:31:52Z</time>
      </trkpt>
      <trkpt lat="44.40691" lon="5.98468">
        <ele>596.1547852</ele>
        <time>2013-01-31T12:31:56Z</time>
      </trkpt>
      <trkpt lat="44.407" lon="5.98521">
        <ele>597.5966797</ele>
        <time>2013-01-31T12:32:14Z</time>
      </trkpt>
      <trkpt lat="44.40713" lon="5.98595">
        <ele>599.5192871</ele>
        <time>2013-01-31T12:32:36Z</time>
      </trkpt>
      <trkpt lat="44.40724" lon="5.98667">
        <ele>600.9611816</ele>
        <time>2013-01-31T12:32:58Z</time>
      </trkpt>
      <trkpt lat="44.40735" lon="5.98737">
        <ele>602.8837891</ele>
        <time>2013-01-31T12:33:20Z</time>
      </trkpt>
      <trkpt lat="44.40746" lon="5.98808">
        <ele>605.2873535</ele>
        <time>2013-01-31T12:33:42Z</time>
      </trkpt>
      <trkpt lat="44.40751" lon="5.9883">
        <ele>605.7680664</ele>
        <time>2013-01-31T12:33:49Z</time>
      </trkpt>
      <trkpt lat="44.40772" lon="5.98901">
        <ele>605.7680664</ele>
        <time>2013-01-31T12:34:08Z</time>
      </trkpt>
      <trkpt lat="44.40824" lon="5.9901">
        <ele>604.8066406</ele>
        <time>2013-01-31T12:34:31Z</time>
      </trkpt>
      <trkpt lat="44.40879" lon="5.99119">
        <ele>603.364502</ele>
        <time>2013-01-31T12:34:54Z</time>
      </trkpt>
      <trkpt lat="44.40882" lon="5.99124">
        <ele>603.364502</ele>
        <time>2013-01-31T12:34:55Z</time>
      </trkpt>
      <trkpt lat="44.40915" lon="5.99181">
        <ele>602.4030762</ele>
        <time>2013-01-31T12:35:07Z</time>
      </trkpt>
      <trkpt lat="44.40973" lon="5.99296">
        <ele>599.0385742</ele>
        <time>2013-01-31T12:35:25Z</time>
      </trkpt>
      <trkpt lat="44.41005" lon="5.99359">
        <ele>597.5966797</ele>
        <time>2013-01-31T12:35:33Z</time>
      </trkpt>
      <trkpt lat="44.41017" lon="5.99416">
        <ele>594.7126465</ele>
        <time>2013-01-31T12:35:39Z</time>
      </trkpt>
      <trkpt lat="44.41014" lon="5.99496">
        <ele>593.270752</ele>
        <time>2013-01-31T12:35:47Z</time>
      </trkpt>
      <trkpt lat="44.41008" lon="5.99589">
        <ele>592.3095703</ele>
        <time>2013-01-31T12:35:58Z</time>
      </trkpt>
      <trkpt lat="44.41009" lon="5.99622">
        <ele>591.8288574</ele>
        <time>2013-01-31T12:36:03Z</time>
      </trkpt>
      <trkpt lat="44.41019" lon="5.99745">
        <ele>588.4643555</ele>
        <time>2013-01-31T12:36:19Z</time>
      </trkpt>
      <trkpt lat="44.41029" lon="5.99834">
        <ele>587.9833984</ele>
        <time>2013-01-31T12:36:33Z</time>
      </trkpt>
      <trkpt lat="44.41031" lon="5.99849">
        <ele>589.4255371</ele>
        <time>2013-01-31T12:36:36Z</time>
      </trkpt>
      <trkpt lat="44.41039" lon="5.99917">
        <ele>590.3869629</ele>
        <time>2013-01-31T12:36:51Z</time>
      </trkpt>
      <trkpt lat="44.41054" lon="6.00006">
        <ele>592.3095703</ele>
        <time>2013-01-31T12:37:13Z</time>
      </trkpt>
      <trkpt lat="44.41072" lon="6.00093">
        <ele>594.2321777</ele>
        <time>2013-01-31T12:37:35Z</time>
      </trkpt>
      <trkpt lat="44.41093" lon="6.00177">
        <ele>596.635498</ele>
        <time>2013-01-31T12:37:56Z</time>
      </trkpt>
      <trkpt lat="44.41118" lon="6.00275">
        <ele>596.635498</ele>
        <time>2013-01-31T12:38:18Z</time>
      </trkpt>
      <trkpt lat="44.41142" lon="6.00361">
        <ele>596.635498</ele>
        <time>2013-01-31T12:38:36Z</time>
      </trkpt>
      <trkpt lat="44.41165" lon="6.00442">
        <ele>597.1159668</ele>
        <time>2013-01-31T12:38:52Z</time>
      </trkpt>
      <trkpt lat="44.41176" lon="6.00485">
        <ele>597.1159668</ele>
        <time>2013-01-31T12:39:00Z</time>
      </trkpt>
      <trkpt lat="44.41207" lon="6.00601">
        <ele>595.6740723</ele>
        <time>2013-01-31T12:39:20Z</time>
      </trkpt>
      <trkpt lat="44.41237" lon="6.00715">
        <ele>596.1547852</ele>
        <time>2013-01-31T12:39:41Z</time>
      </trkpt>
      <trkpt lat="44.41241" lon="6.00731">
        <ele>595.6740723</ele>
        <time>2013-01-31T12:39:44Z</time>
      </trkpt>
      <trkpt lat="44.41256" lon="6.00783">
        <ele>595.1933594</ele>
        <time>2013-01-31T12:39:54Z</time>
      </trkpt>
      <trkpt lat="44.4126" lon="6.008">
        <ele>595.1933594</ele>
        <time>2013-01-31T12:39:57Z</time>
      </trkpt>
      <trkpt lat="44.4129" lon="6.00901">
        <ele>591.8288574</ele>
        <time>2013-01-31T12:40:11Z</time>
      </trkpt>
      <trkpt lat="44.41307" lon="6.00952">
        <ele>593.7514648</ele>
        <time>2013-01-31T12:40:21Z</time>
      </trkpt>
      <trkpt lat="44.41314" lon="6.00966">
        <ele>593.270752</ele>
        <time>2013-01-31T12:40:25Z</time>
      </trkpt>
      <trkpt lat="44.41321" lon="6.00977">
        <ele>594.7126465</ele>
        <time>2013-01-31T12:40:28Z</time>
      </trkpt>
      <trkpt lat="44.41349" lon="6.01035">
        <ele>595.6740723</ele>
        <time>2013-01-31T12:40:46Z</time>
      </trkpt>
      <trkpt lat="44.41378" lon="6.0108">
        <ele>598.0773926</ele>
        <time>2013-01-31T12:41:03Z</time>
      </trkpt>
      <trkpt lat="44.4138" lon="6.01083">
        <ele>597.5966797</ele>
        <time>2013-01-31T12:41:04Z</time>
      </trkpt>
      <trkpt lat="44.41384" lon="6.01088">
        <ele>599.0385742</ele>
        <time>2013-01-31T12:41:06Z</time>
      </trkpt>
      <trkpt lat="44.41418" lon="6.01124">
        <ele>599.5192871</ele>
        <time>2013-01-31T12:41:21Z</time>
      </trkpt>
      <trkpt lat="44.41473" lon="6.01176">
        <ele>601.9226074</ele>
        <time>2013-01-31T12:41:43Z</time>
      </trkpt>
      <trkpt lat="44.41528" lon="6.01221">
        <ele>601.4418945</ele>
        <time>2013-01-31T12:42:03Z</time>
      </trkpt>
      <trkpt lat="44.4153" lon="6.01223">
        <ele>601.4418945</ele>
        <time>2013-01-31T12:42:04Z</time>
      </trkpt>
      <trkpt lat="44.41577" lon="6.01277">
        <ele>602.8837891</ele>
        <time>2013-01-31T12:42:23Z</time>
      </trkpt>
      <trkpt lat="44.416" lon="6.01313">
        <ele>602.4030762</ele>
        <time>2013-01-31T12:42:32Z</time>
      </trkpt>
      <trkpt lat="44.41641" lon="6.01399">
        <ele>601.4418945</ele>
        <time>2013-01-31T12:42:48Z</time>
      </trkpt>
      <trkpt lat="44.41659" lon="6.01437">
        <ele>600.9611816</ele>
        <time>2013-01-31T12:42:55Z</time>
      </trkpt>
      <trkpt lat="44.41666" lon="6.01455">
        <ele>600.4807129</ele>
        <time>2013-01-31T12:42:58Z</time>
      </trkpt>
      <trkpt lat="44.41685" lon="6.01561">
        <ele>598.0773926</ele>
        <time>2013-01-31T12:43:13Z</time>
      </trkpt>
      <trkpt lat="44.41696" lon="6.01597">
        <ele>596.635498</ele>
        <time>2013-01-31T12:43:17Z</time>
      </trkpt>
      <trkpt lat="44.41733" lon="6.01708">
        <ele>593.270752</ele>
        <time>2013-01-31T12:43:29Z</time>
      </trkpt>
      <trkpt lat="44.41772" lon="6.0183">
        <ele>589.90625</ele>
        <time>2013-01-31T12:43:43Z</time>
      </trkpt>
      <trkpt lat="44.41775" lon="6.0184">
        <ele>589.90625</ele>
        <time>2013-01-31T12:43:44Z</time>
      </trkpt>
      <trkpt lat="44.41808" lon="6.01891">
        <ele>588.4643555</ele>
        <time>2013-01-31T12:43:51Z</time>
      </trkpt>
      <trkpt lat="44.41873" lon="6.01942">
        <ele>588.4643555</ele>
        <time>2013-01-31T12:44:06Z</time>
      </trkpt>
      <trkpt lat="44.41918" lon="6.01984">
        <ele>588.9450684</ele>
        <time>2013-01-31T12:44:19Z</time>
      </trkpt>
      <trkpt lat="44.41933" lon="6.02013">
        <ele>587.5026855</ele>
        <time>2013-01-31T12:44:24Z</time>
      </trkpt>
      <trkpt lat="44.41938" lon="6.02023">
        <ele>587.9833984</ele>
        <time>2013-01-31T12:44:26Z</time>
      </trkpt>
      <trkpt lat="44.41958" lon="6.02093">
        <ele>589.4255371</ele>
        <time>2013-01-31T12:44:40Z</time>
      </trkpt>
      <trkpt lat="44.41961" lon="6.02103">
        <ele>590.8674316</ele>
        <time>2013-01-31T12:44:42Z</time>
      </trkpt>
      <trkpt lat="44.41998" lon="6.02213">
        <ele>591.3481445</ele>
        <time>2013-01-31T12:45:04Z</time>
      </trkpt>
      <trkpt lat="44.42012" lon="6.02246">
        <ele>591.8288574</ele>
        <time>2013-01-31T12:45:12Z</time>
      </trkpt>
      <trkpt lat="44.4202" lon="6.02265">
        <ele>592.7902832</ele>
        <time>2013-01-31T12:45:17Z</time>
      </trkpt>
      <trkpt lat="44.42029" lon="6.0228">
        <ele>591.8288574</ele>
        <time>2013-01-31T12:45:21Z</time>
      </trkpt>
      <trkpt lat="44.42084" lon="6.02331">
        <ele>593.270752</ele>
        <time>2013-01-31T12:45:39Z</time>
      </trkpt>
      <trkpt lat="44.42125" lon="6.02383">
        <ele>594.2321777</ele>
        <time>2013-01-31T12:45:57Z</time>
      </trkpt>
      <trkpt lat="44.4213" lon="6.02391">
        <ele>594.7126465</ele>
        <time>2013-01-31T12:45:59Z</time>
      </trkpt>
      <trkpt lat="44.42172" lon="6.02475">
        <ele>594.7126465</ele>
        <time>2013-01-31T12:46:19Z</time>
      </trkpt>
      <trkpt lat="44.42178" lon="6.02488">
        <ele>593.270752</ele>
        <time>2013-01-31T12:46:22Z</time>
      </trkpt>
      <trkpt lat="44.42186" lon="6.02506">
        <ele>595.6740723</ele>
        <time>2013-01-31T12:46:26Z</time>
      </trkpt>
      <trkpt lat="44.42243" lon="6.02617">
        <ele>595.1933594</ele>
        <time>2013-01-31T12:46:50Z</time>
      </trkpt>
      <trkpt lat="44.42292" lon="6.02708">
        <ele>596.635498</ele>
        <time>2013-01-31T12:47:11Z</time>
      </trkpt>
      <trkpt lat="44.42316" lon="6.02803">
        <ele>598.0773926</ele>
        <time>2013-01-31T12:47:31Z</time>
      </trkpt>
      <trkpt lat="44.42345" lon="6.02882">
        <ele>599.5192871</ele>
        <time>2013-01-31T12:47:49Z</time>
      </trkpt>
      <trkpt lat="44.42378" lon="6.02971">
        <ele>600.9611816</ele>
        <time>2013-01-31T12:48:10Z</time>
      </trkpt>
      <trkpt lat="44.42417" lon="6.03064">
        <ele>601.9226074</ele>
        <time>2013-01-31T12:48:32Z</time>
      </trkpt>
      <trkpt lat="44.42458" lon="6.03162">
        <ele>602.8837891</ele>
        <time>2013-01-31T12:48:55Z</time>
      </trkpt>
      <trkpt lat="44.42481" lon="6.03252">
        <ele>604.3261719</ele>
        <time>2013-01-31T12:49:15Z</time>
      </trkpt>
      <trkpt lat="44.425" lon="6.03337">
        <ele>606.729248</ele>
        <time>2013-01-31T12:49:36Z</time>
      </trkpt>
      <trkpt lat="44.42518" lon="6.03416">
        <ele>608.1713867</ele>
        <time>2013-01-31T12:49:55Z</time>
      </trkpt>
      <trkpt lat="44.42563" lon="6.0343">
        <ele>609.1325684</ele>
        <time>2013-01-31T12:50:09Z</time>
      </trkpt>
      <trkpt lat="44.42608" lon="6.03415">
        <ele>608.1713867</ele>
        <time>2013-01-31T12:50:21Z</time>
      </trkpt>
      <trkpt lat="44.4268" lon="6.03415">
        <ele>605.2873535</ele>
        <time>2013-01-31T12:50:33Z</time>
      </trkpt>
      <trkpt lat="44.42698" lon="6.03422">
        <ele>604.8066406</ele>
        <time>2013-01-31T12:50:36Z</time>
      </trkpt>
      <trkpt lat="44.42748" lon="6.03449">
        <ele>603.8452148</ele>
        <time>2013-01-31T12:50:46Z</time>
      </trkpt>
      <trkpt lat="44.42761" lon="6.03456">
        <ele>604.3261719</ele>
        <time>2013-01-31T12:50:49Z</time>
      </trkpt>
      <trkpt lat="44.42836" lon="6.03512">
        <ele>606.2485352</ele>
        <time>2013-01-31T12:51:10Z</time>
      </trkpt>
      <trkpt lat="44.4291" lon="6.03556">
        <ele>605.7680664</ele>
        <time>2013-01-31T12:51:30Z</time>
      </trkpt>
      <trkpt lat="44.42934" lon="6.03557">
        <ele>605.2873535</ele>
        <time>2013-01-31T12:51:35Z</time>
      </trkpt>
      <trkpt lat="44.42978" lon="6.03546">
        <ele>604.8066406</ele>
        <time>2013-01-31T12:51:44Z</time>
      </trkpt>
      <trkpt lat="44.43002" lon="6.0354">
        <ele>604.3261719</ele>
        <time>2013-01-31T12:51:49Z</time>
      </trkpt>
      <trkpt lat="44.43059" lon="6.03564">
        <ele>603.364502</ele>
        <time>2013-01-31T12:52:01Z</time>
      </trkpt>
      <trkpt lat="44.43106" lon="6.03607">
        <ele>605.2873535</ele>
        <time>2013-01-31T12:52:17Z</time>
      </trkpt>
      <trkpt lat="44.43145" lon="6.03633">
        <ele>607.2099609</ele>
        <time>2013-01-31T12:52:33Z</time>
      </trkpt>
      <trkpt lat="44.43188" lon="6.03653">
        <ele>609.1325684</ele>
        <time>2013-01-31T12:52:51Z</time>
      </trkpt>
      <trkpt lat="44.43236" lon="6.03666">
        <ele>610.5744629</ele>
        <time>2013-01-31T12:53:08Z</time>
      </trkpt>
      <trkpt lat="44.43287" lon="6.03716">
        <ele>610.5744629</ele>
        <time>2013-01-31T12:53:25Z</time>
      </trkpt>
      <trkpt lat="44.43332" lon="6.03765">
        <ele>612.4970703</ele>
        <time>2013-01-31T12:53:42Z</time>
      </trkpt>
      <trkpt lat="44.43374" lon="6.03839">
        <ele>612.9777832</ele>
        <time>2013-01-31T12:54:00Z</time>
      </trkpt>
      <trkpt lat="44.43397" lon="6.03908">
        <ele>614.4196777</ele>
        <time>2013-01-31T12:54:17Z</time>
      </trkpt>
      <trkpt lat="44.4342" lon="6.03972">
        <ele>615.8618164</ele>
        <time>2013-01-31T12:54:34Z</time>
      </trkpt>
      <trkpt lat="44.43456" lon="6.04042">
        <ele>614.9003906</ele>
        <time>2013-01-31T12:54:49Z</time>
      </trkpt>
      <trkpt lat="44.4348" lon="6.04072">
        <ele>613.4584961</ele>
        <time>2013-01-31T12:54:54Z</time>
      </trkpt>
      <trkpt lat="44.43523" lon="6.04113">
        <ele>612.0166016</ele>
        <time>2013-01-31T12:55:03Z</time>
      </trkpt>
      <trkpt lat="44.43532" lon="6.04122">
        <ele>611.5358887</ele>
        <time>2013-01-31T12:55:05Z</time>
      </trkpt>
      <trkpt lat="44.43556" lon="6.04156">
        <ele>611.5358887</ele>
        <time>2013-01-31T12:55:11Z</time>
      </trkpt>
      <trkpt lat="44.43575" lon="6.04215">
        <ele>611.5358887</ele>
        <time>2013-01-31T12:55:21Z</time>
      </trkpt>
      <trkpt lat="44.4361" lon="6.04282">
        <ele>612.9777832</ele>
        <time>2013-01-31T12:55:37Z</time>
      </trkpt>
      <trkpt lat="44.43648" lon="6.04349">
        <ele>613.9389648</ele>
        <time>2013-01-31T12:55:55Z</time>
      </trkpt>
      <trkpt lat="44.43682" lon="6.04404">
        <ele>613.4584961</ele>
        <time>2013-01-31T12:56:08Z</time>
      </trkpt>
      <trkpt lat="44.43727" lon="6.04422">
        <ele>614.9003906</ele>
        <time>2013-01-31T12:56:21Z</time>
      </trkpt>
      <trkpt lat="44.43753" lon="6.04413">
        <ele>614.9003906</ele>
        <time>2013-01-31T12:56:28Z</time>
      </trkpt>
      <trkpt lat="44.4378" lon="6.04417">
        <ele>613.4584961</ele>
        <time>2013-01-31T12:56:33Z</time>
      </trkpt>
      <trkpt lat="44.4388" lon="6.04462">
        <ele>610.5744629</ele>
        <time>2013-01-31T12:56:49Z</time>
      </trkpt>
      <trkpt lat="44.43895" lon="6.04469">
        <ele>611.0551758</ele>
        <time>2013-01-31T12:56:52Z</time>
      </trkpt>
      <trkpt lat="44.43912" lon="6.04477">
        <ele>609.1325684</ele>
        <time>2013-01-31T12:56:56Z</time>
      </trkpt>
      <trkpt lat="44.4392" lon="6.0448">
        <ele>612.0166016</ele>
        <time>2013-01-31T12:56:58Z</time>
      </trkpt>
      <trkpt lat="44.43968" lon="6.04522">
        <ele>614.4196777</ele>
        <time>2013-01-31T12:57:15Z</time>
      </trkpt>
      <trkpt lat="44.43995" lon="6.04579">
        <ele>615.3811035</ele>
        <time>2013-01-31T12:57:31Z</time>
      </trkpt>
      <trkpt lat="44.4403" lon="6.04663">
        <ele>612.4970703</ele>
        <time>2013-01-31T12:57:44Z</time>
      </trkpt>
      <trkpt lat="44.44034" lon="6.04672">
        <ele>612.4970703</ele>
        <time>2013-01-31T12:57:45Z</time>
      </trkpt>
      <trkpt lat="44.44042" lon="6.04692">
        <ele>610.5744629</ele>
        <time>2013-01-31T12:57:47Z</time>
      </trkpt>
      <trkpt lat="44.44072" lon="6.04763">
        <ele>610.09375</ele>
        <time>2013-01-31T12:57:56Z</time>
      </trkpt>
      <trkpt lat="44.44103" lon="6.04815">
        <ele>612.0166016</ele>
        <time>2013-01-31T12:58:10Z</time>
      </trkpt>
      <trkpt lat="44.44126" lon="6.04829">
        <ele>613.9389648</ele>
        <time>2013-01-31T12:58:19Z</time>
      </trkpt>
      <trkpt lat="44.44146" lon="6.04854">
        <ele>616.3422852</ele>
        <time>2013-01-31T12:58:29Z</time>
      </trkpt>
      <trkpt lat="44.4418" lon="6.04899">
        <ele>616.3422852</ele>
        <time>2013-01-31T12:58:46Z</time>
      </trkpt>
      <trkpt lat="44.44209" lon="6.04924">
        <ele>617.3037109</ele>
        <time>2013-01-31T12:59:00Z</time>
      </trkpt>
      <trkpt lat="44.44244" lon="6.04948">
        <ele>619.2263184</ele>
        <time>2013-01-31T12:59:18Z</time>
      </trkpt>
      <trkpt lat="44.44279" lon="6.04973">
        <ele>621.6296387</ele>
        <time>2013-01-31T12:59:35Z</time>
      </trkpt>
      <trkpt lat="44.44307" lon="6.05014">
        <ele>624.9943848</ele>
        <time>2013-01-31T12:59:55Z</time>
      </trkpt>
      <trkpt lat="44.44316" lon="6.05038">
        <ele>626.9169922</ele>
        <time>2013-01-31T13:00:05Z</time>
      </trkpt>
      <trkpt lat="44.44318" lon="6.05043">
        <ele>627.3977051</ele>
        <time>2013-01-31T13:00:07Z</time>
      </trkpt>
      <trkpt lat="44.44337" lon="6.05093">
        <ele>630.2814941</ele>
        <time>2013-01-31T13:00:28Z</time>
      </trkpt>
      <trkpt lat="44.44344" lon="6.05106">
        <ele>631.2429199</ele>
        <time>2013-01-31T13:00:34Z</time>
      </trkpt>
      <trkpt lat="44.44348" lon="6.05113">
        <ele>631.7233887</ele>
        <time>2013-01-31T13:00:37Z</time>
      </trkpt>
      <trkpt lat="44.4438" lon="6.05176">
        <ele>632.6848145</ele>
        <time>2013-01-31T13:00:58Z</time>
      </trkpt>
      <trkpt lat="44.44427" lon="6.05258">
        <ele>629.8007813</ele>
        <time>2013-01-31T13:01:15Z</time>
      </trkpt>
      <trkpt lat="44.44478" lon="6.05317">
        <ele>629.8007813</ele>
        <time>2013-01-31T13:01:29Z</time>
      </trkpt>
      <trkpt lat="44.44526" lon="6.05384">
        <ele>630.762207</ele>
        <time>2013-01-31T13:01:47Z</time>
      </trkpt>
      <trkpt lat="44.44583" lon="6.05463">
        <ele>630.2814941</ele>
        <time>2013-01-31T13:02:05Z</time>
      </trkpt>
      <trkpt lat="44.44661" lon="6.05546">
        <ele>629.3200684</ele>
        <time>2013-01-31T13:02:23Z</time>
      </trkpt>
      <trkpt lat="44.44673" lon="6.05559">
        <ele>629.3200684</ele>
        <time>2013-01-31T13:02:26Z</time>
      </trkpt>
      <trkpt lat="44.44683" lon="6.05571">
        <ele>629.8007813</ele>
        <time>2013-01-31T13:02:29Z</time>
      </trkpt>
      <trkpt lat="44.4475" lon="6.05621">
        <ele>629.8007813</ele>
        <time>2013-01-31T13:02:45Z</time>
      </trkpt>
      <trkpt lat="44.4478" lon="6.0566">
        <ele>630.762207</ele>
        <time>2013-01-31T13:02:54Z</time>
      </trkpt>
      <trkpt lat="44.44793" lon="6.05714">
        <ele>630.762207</ele>
        <time>2013-01-31T13:03:04Z</time>
      </trkpt>
      <trkpt lat="44.44799" lon="6.05821">
        <ele>630.762207</ele>
        <time>2013-01-31T13:03:22Z</time>
      </trkpt>
      <trkpt lat="44.44804" lon="6.05839">
        <ele>630.762207</ele>
        <time>2013-01-31T13:03:25Z</time>
      </trkpt>
      <trkpt lat="44.44828" lon="6.05872">
        <ele>629.8007813</ele>
        <time>2013-01-31T13:03:32Z</time>
      </trkpt>
      <trkpt lat="44.44855" lon="6.05886">
        <ele>627.3977051</ele>
        <time>2013-01-31T13:03:36Z</time>
      </trkpt>
      <trkpt lat="44.44907" lon="6.05915">
        <ele>624.5136719</ele>
        <time>2013-01-31T13:03:43Z</time>
      </trkpt>
      <trkpt lat="44.44987" lon="6.05953">
        <ele>624.032959</ele>
        <time>2013-01-31T13:03:55Z</time>
      </trkpt>
      <trkpt lat="44.44993" lon="6.05954">
        <ele>624.032959</ele>
        <time>2013-01-31T13:03:56Z</time>
      </trkpt>
      <trkpt lat="44.45072" lon="6.05945">
        <ele>622.5910645</ele>
        <time>2013-01-31T13:04:11Z</time>
      </trkpt>
      <trkpt lat="44.45084" lon="6.05941">
        <ele>622.1103516</ele>
        <time>2013-01-31T13:04:13Z</time>
      </trkpt>
      <trkpt lat="44.45142" lon="6.05923">
        <ele>619.2263184</ele>
        <time>2013-01-31T13:04:21Z</time>
      </trkpt>
      <trkpt lat="44.4515" lon="6.05922">
        <ele>618.2648926</ele>
        <time>2013-01-31T13:04:22Z</time>
      </trkpt>
      <trkpt lat="44.45194" lon="6.05934">
        <ele>614.9003906</ele>
        <time>2013-01-31T13:04:27Z</time>
      </trkpt>
      <trkpt lat="44.4527" lon="6.05989">
        <ele>611.5358887</ele>
        <time>2013-01-31T13:04:36Z</time>
      </trkpt>
      <trkpt lat="44.45361" lon="6.06037">
        <ele>610.09375</ele>
        <time>2013-01-31T13:04:48Z</time>
      </trkpt>
      <trkpt lat="44.45406" lon="6.06058">
        <ele>610.5744629</ele>
        <time>2013-01-31T13:04:56Z</time>
      </trkpt>
      <trkpt lat="44.4542" lon="6.06066">
        <ele>610.5744629</ele>
        <time>2013-01-31T13:04:59Z</time>
      </trkpt>
      <trkpt lat="44.45503" lon="6.0611">
        <ele>612.4970703</ele>
        <time>2013-01-31T13:05:20Z</time>
      </trkpt>
      <trkpt lat="44.45551" lon="6.06141">
        <ele>613.9389648</ele>
        <time>2013-01-31T13:05:36Z</time>
      </trkpt>
      <trkpt lat="44.456" lon="6.06156">
        <ele>615.8618164</ele>
        <time>2013-01-31T13:05:53Z</time>
      </trkpt>
      <trkpt lat="44.45622" lon="6.06158">
        <ele>617.3037109</ele>
        <time>2013-01-31T13:06:02Z</time>
      </trkpt>
      <trkpt lat="44.4566" lon="6.06155">
        <ele>618.2648926</ele>
        <time>2013-01-31T13:06:15Z</time>
      </trkpt>
      <trkpt lat="44.45711" lon="6.06163">
        <ele>619.7070313</ele>
        <time>2013-01-31T13:06:31Z</time>
      </trkpt>
      <trkpt lat="44.45761" lon="6.06223">
        <ele>621.1491699</ele>
        <time>2013-01-31T13:06:52Z</time>
      </trkpt>
      <trkpt lat="44.45812" lon="6.06284">
        <ele>620.668457</ele>
        <time>2013-01-31T13:07:10Z</time>
      </trkpt>
      <trkpt lat="44.45864" lon="6.06344">
        <ele>622.1103516</ele>
        <time>2013-01-31T13:07:28Z</time>
      </trkpt>
      <trkpt lat="44.45924" lon="6.06408">
        <ele>624.5136719</ele>
        <time>2013-01-31T13:07:49Z</time>
      </trkpt>
      <trkpt lat="44.45967" lon="6.06452">
        <ele>626.4362793</ele>
        <time>2013-01-31T13:08:07Z</time>
      </trkpt>
      <trkpt lat="44.46008" lon="6.06494">
        <ele>626.4362793</ele>
        <time>2013-01-31T13:08:24Z</time>
      </trkpt>
      <trkpt lat="44.46014" lon="6.06499">
        <ele>628.8395996</ele>
        <time>2013-01-31T13:08:26Z</time>
      </trkpt>
      <trkpt lat="44.46036" lon="6.0651">
        <ele>628.8395996</ele>
        <time>2013-01-31T13:08:35Z</time>
      </trkpt>
      <trkpt lat="44.46043" lon="6.06504">
        <ele>628.3588867</ele>
        <time>2013-01-31T13:08:39Z</time>
      </trkpt>
      <trkpt lat="44.46049" lon="6.06496">
        <ele>627.3977051</ele>
        <time>2013-01-31T13:08:42Z</time>
      </trkpt>
      <trkpt lat="44.46088" lon="6.06446">
        <ele>623.5524902</ele>
        <time>2013-01-31T13:08:51Z</time>
      </trkpt>
      <trkpt lat="44.46095" lon="6.06438">
        <ele>623.5524902</ele>
        <time>2013-01-31T13:08:52Z</time>
      </trkpt>
      <trkpt lat="44.46134" lon="6.06393">
        <ele>620.1877441</ele>
        <time>2013-01-31T13:08:58Z</time>
      </trkpt>
      <trkpt lat="44.4614" lon="6.06386">
        <ele>620.1877441</ele>
        <time>2013-01-31T13:08:59Z</time>
      </trkpt>
      <trkpt lat="44.46178" lon="6.06341">
        <ele>616.822998</ele>
        <time>2013-01-31T13:09:05Z</time>
      </trkpt>
      <trkpt lat="44.46184" lon="6.06335">
        <ele>616.822998</ele>
        <time>2013-01-31T13:09:06Z</time>
      </trkpt>
      <trkpt lat="44.46204" lon="6.06311">
        <ele>614.9003906</ele>
        <time>2013-01-31T13:09:10Z</time>
      </trkpt>
      <trkpt lat="44.46208" lon="6.06305">
        <ele>614.9003906</ele>
        <time>2013-01-31T13:09:11Z</time>
      </trkpt>
      <trkpt lat="44.46215" lon="6.06282">
        <ele>612.4970703</ele>
        <time>2013-01-31T13:09:15Z</time>
      </trkpt>
      <trkpt lat="44.46206" lon="6.06248">
        <ele>612.4970703</ele>
        <time>2013-01-31T13:09:21Z</time>
      </trkpt>
      <trkpt lat="44.46187" lon="6.06212">
        <ele>610.09375</ele>
        <time>2013-01-31T13:09:26Z</time>
      </trkpt>
      <trkpt lat="44.4618" lon="6.06182">
        <ele>608.1713867</ele>
        <time>2013-01-31T13:09:29Z</time>
      </trkpt>
      <trkpt lat="44.46178" lon="6.06145">
        <ele>606.2485352</ele>
        <time>2013-01-31T13:09:32Z</time>
      </trkpt>
      <trkpt lat="44.46178" lon="6.0603">
        <ele>603.364502</ele>
        <time>2013-01-31T13:09:41Z</time>
      </trkpt>
      <trkpt lat="44.46178" lon="6.05988">
        <ele>603.364502</ele>
        <time>2013-01-31T13:09:45Z</time>
      </trkpt>
      <trkpt lat="44.4619" lon="6.05932">
        <ele>602.4030762</ele>
        <time>2013-01-31T13:09:51Z</time>
      </trkpt>
      <trkpt lat="44.462" lon="6.05881">
        <ele>600.4807129</ele>
        <time>2013-01-31T13:09:56Z</time>
      </trkpt>
      <trkpt lat="44.46211" lon="6.05825">
        <ele>600.4807129</ele>
        <time>2013-01-31T13:10:02Z</time>
      </trkpt>
      <trkpt lat="44.46215" lon="6.05804">
        <ele>599.0385742</ele>
        <time>2013-01-31T13:10:06Z</time>
      </trkpt>
      <trkpt lat="44.46221" lon="6.05773">
        <ele>599.0385742</ele>
        <time>2013-01-31T13:10:13Z</time>
      </trkpt>
      <trkpt lat="44.46263" lon="6.05736">
        <ele>599.5192871</ele>
        <time>2013-01-31T13:10:29Z</time>
      </trkpt>
      <trkpt lat="44.46306" lon="6.05731">
        <ele>600</ele>
        <time>2013-01-31T13:10:42Z</time>
      </trkpt>
      <trkpt lat="44.46327" lon="6.05718">
        <ele>602.8837891</ele>
        <time>2013-01-31T13:10:49Z</time>
      </trkpt>
      <trkpt lat="44.46324" lon="6.05718">
        <ele>603.364502</ele>
        <time>2013-01-31T13:10:56Z</time>
      </trkpt>
      <trkpt lat="44.46285" lon="6.05685">
        <ele>604.8066406</ele>
        <time>2013-01-31T13:11:13Z</time>
      </trkpt>
      <trkpt lat="44.46264" lon="6.05644">
        <ele>607.6906738</ele>
        <time>2013-01-31T13:11:26Z</time>
      </trkpt>
      <trkpt lat="44.46294" lon="6.05641">
        <ele>608.1713867</ele>
        <time>2013-01-31T13:11:34Z</time>
      </trkpt>
      <trkpt lat="44.46235" lon="6.05624">
        <ele>608.1713867</ele>
        <time>2013-01-31T13:11:38Z</time>
      </trkpt>
      <trkpt lat="44.46276" lon="6.05591">
        <ele>609.6132813</ele>
        <time>2013-01-31T13:11:44Z</time>
      </trkpt>
      <trkpt lat="44.4623" lon="6.0555">
        <ele>609.6132813</ele>
        <time>2013-01-31T13:12:03Z</time>
      </trkpt>
      <trkpt lat="44.46211" lon="6.0553">
        <ele>610.09375</ele>
        <time>2013-01-31T13:12:11Z</time>
      </trkpt>
      <trkpt lat="44.46188" lon="6.05517">
        <ele>610.5744629</ele>
        <time>2013-01-31T13:12:20Z</time>
      </trkpt>
      <trkpt lat="44.46182" lon="6.05499">
        <ele>610.09375</ele>
        <time>2013-01-31T13:12:25Z</time>
      </trkpt>
      <trkpt lat="44.46205" lon="6.05449">
        <ele>612.4970703</ele>
        <time>2013-01-31T13:12:40Z</time>
      </trkpt>
      <trkpt lat="44.46213" lon="6.0544">
        <ele>614.4196777</ele>
        <time>2013-01-31T13:12:45Z</time>
      </trkpt>
      <trkpt lat="44.4623" lon="6.05421">
        <ele>615.8618164</ele>
        <time>2013-01-31T13:12:55Z</time>
      </trkpt>
      <trkpt lat="44.4626" lon="6.05389">
        <ele>616.3422852</ele>
        <time>2013-01-31T13:13:13Z</time>
      </trkpt>
      <trkpt lat="44.46289" lon="6.0536">
        <ele>619.2263184</ele>
        <time>2013-01-31T13:13:29Z</time>
      </trkpt>
      <trkpt lat="44.46305" lon="6.05343">
        <ele>623.0717773</ele>
        <time>2013-01-31T13:13:37Z</time>
      </trkpt>
      <trkpt lat="44.46313" lon="6.05333">
        <ele>620.1877441</ele>
        <time>2013-01-31T13:13:41Z</time>
      </trkpt>
      <trkpt lat="44.46352" lon="6.05293">
        <ele>623.0717773</ele>
        <time>2013-01-31T13:13:59Z</time>
      </trkpt>
      <trkpt lat="44.46371" lon="6.0527">
        <ele>624.5136719</ele>
        <time>2013-01-31T13:14:09Z</time>
      </trkpt>
      <trkpt lat="44.46375" lon="6.05266">
        <ele>621.6296387</ele>
        <time>2013-01-31T13:14:11Z</time>
      </trkpt>
      <trkpt lat="44.46383" lon="6.05256">
        <ele>624.032959</ele>
        <time>2013-01-31T13:14:16Z</time>
      </trkpt>
      <trkpt lat="44.46387" lon="6.05244">
        <ele>624.032959</ele>
        <time>2013-01-31T13:14:20Z</time>
      </trkpt>
      <trkpt lat="44.46391" lon="6.05234">
        <ele>625.9555664</ele>
        <time>2013-01-31T13:14:23Z</time>
      </trkpt>
      <trkpt lat="44.46397" lon="6.05193">
        <ele>624.9943848</ele>
        <time>2013-01-31T13:14:32Z</time>
      </trkpt>
      <trkpt lat="44.46398" lon="6.05182">
        <ele>623.5524902</ele>
        <time>2013-01-31T13:14:34Z</time>
      </trkpt>
      <trkpt lat="44.46402" lon="6.05118">
        <ele>621.6296387</ele>
        <time>2013-01-31T13:14:44Z</time>
      </trkpt>
      <trkpt lat="44.46409" lon="6.0497">
        <ele>622.1103516</ele>
        <time>2013-01-31T13:15:07Z</time>
      </trkpt>
      <trkpt lat="44.46409" lon="6.04806">
        <ele>623.0717773</ele>
        <time>2013-01-31T13:15:35Z</time>
      </trkpt>
      <trkpt lat="44.46404" lon="6.0475">
        <ele>623.0717773</ele>
        <time>2013-01-31T13:15:45Z</time>
      </trkpt>
      <trkpt lat="44.46402" lon="6.04738">
        <ele>623.5524902</ele>
        <time>2013-01-31T13:15:47Z</time>
      </trkpt>
      <trkpt lat="44.46379" lon="6.0461">
        <ele>624.032959</ele>
        <time>2013-01-31T13:16:09Z</time>
      </trkpt>
      <trkpt lat="44.46354" lon="6.04501">
        <ele>625.4748535</ele>
        <time>2013-01-31T13:16:32Z</time>
      </trkpt>
      <trkpt lat="44.46322" lon="6.04402">
        <ele>623.0717773</ele>
        <time>2013-01-31T13:16:47Z</time>
      </trkpt>
      <trkpt lat="44.46269" lon="6.04294">
        <ele>620.1877441</ele>
        <time>2013-01-31T13:17:01Z</time>
      </trkpt>
      <trkpt lat="44.46216" lon="6.04147">
        <ele>617.3037109</ele>
        <time>2013-01-31T13:17:20Z</time>
      </trkpt>
      <trkpt lat="44.46187" lon="6.04003">
        <ele>615.8618164</ele>
        <time>2013-01-31T13:17:38Z</time>
      </trkpt>
      <trkpt lat="44.46136" lon="6.03819">
        <ele>612.9777832</ele>
        <time>2013-01-31T13:18:04Z</time>
      </trkpt>
      <trkpt lat="44.46097" lon="6.0367">
        <ele>612.4970703</ele>
        <time>2013-01-31T13:18:28Z</time>
      </trkpt>
      <trkpt lat="44.46096" lon="6.03664">
        <ele>612.4970703</ele>
        <time>2013-01-31T13:18:29Z</time>
      </trkpt>
      <trkpt lat="44.46092" lon="6.0364">
        <ele>612.0166016</ele>
        <time>2013-01-31T13:18:34Z</time>
      </trkpt>
      <trkpt lat="44.46043" lon="6.03623">
        <ele>610.5744629</ele>
        <time>2013-01-31T13:18:42Z</time>
      </trkpt>
      <trkpt lat="44.46004" lon="6.03597">
        <ele>607.2099609</ele>
        <time>2013-01-31T13:18:48Z</time>
      </trkpt>
      <trkpt lat="44.45973" lon="6.03575">
        <ele>606.2485352</ele>
        <time>2013-01-31T13:18:53Z</time>
      </trkpt>
      <trkpt lat="44.45958" lon="6.03554">
        <ele>607.6906738</ele>
        <time>2013-01-31T13:18:56Z</time>
      </trkpt>
      <trkpt lat="44.45947" lon="6.03524">
        <ele>607.2099609</ele>
        <time>2013-01-31T13:19:00Z</time>
      </trkpt>
      <trkpt lat="44.45943" lon="6.03502">
        <ele>606.729248</ele>
        <time>2013-01-31T13:19:03Z</time>
      </trkpt>
      <trkpt lat="44.45931" lon="6.03479">
        <ele>607.6906738</ele>
        <time>2013-01-31T13:19:07Z</time>
      </trkpt>
      <trkpt lat="44.45912" lon="6.0347">
        <ele>607.2099609</ele>
        <time>2013-01-31T13:19:11Z</time>
      </trkpt>
      <trkpt lat="44.45881" lon="6.03463">
        <ele>604.8066406</ele>
        <time>2013-01-31T13:19:17Z</time>
      </trkpt>
      <trkpt lat="44.4579" lon="6.03448">
        <ele>603.8452148</ele>
        <time>2013-01-31T13:19:34Z</time>
      </trkpt>
      <trkpt lat="44.45731" lon="6.03443">
        <ele>603.8452148</ele>
        <time>2013-01-31T13:19:37Z</time>
      </trkpt>
      <trkpt lat="44.45729" lon="6.03428">
        <ele>602.8837891</ele>
        <time>2013-01-31T13:19:43Z</time>
      </trkpt>
      <trkpt lat="44.4571" lon="6.03394">
        <ele>602.8837891</ele>
        <time>2013-01-31T13:19:50Z</time>
      </trkpt>
      <trkpt lat="44.45729" lon="6.03351">
        <ele>604.8066406</ele>
        <time>2013-01-31T13:19:56Z</time>
      </trkpt>
      <trkpt lat="44.45725" lon="6.03394">
        <ele>602.8837891</ele>
        <time>2013-01-31T13:19:58Z</time>
      </trkpt>
      <trkpt lat="44.45717" lon="6.03395">
        <ele>604.8066406</ele>
        <time>2013-01-31T13:20:01Z</time>
      </trkpt>
      <trkpt lat="44.457" lon="6.03385">
        <ele>601.4418945</ele>
        <time>2013-01-31T13:20:09Z</time>
      </trkpt>
      <trkpt lat="44.45697" lon="6.03384">
        <ele>601.4418945</ele>
        <time>2013-01-31T13:20:10Z</time>
      </trkpt>
      <trkpt lat="44.45629" lon="6.03375">
        <ele>601.4418945</ele>
        <time>2013-01-31T13:20:28Z</time>
      </trkpt>
      <trkpt lat="44.45562" lon="6.03383">
        <ele>601.9226074</ele>
        <time>2013-01-31T13:20:46Z</time>
      </trkpt>
      <trkpt lat="44.45539" lon="6.03386">
        <ele>600.9611816</ele>
        <time>2013-01-31T13:20:57Z</time>
      </trkpt>
      <trkpt lat="44.45537" lon="6.03358">
        <ele>600.9611816</ele>
        <time>2013-01-31T13:21:08Z</time>
      </trkpt>
      <trkpt lat="44.45537" lon="6.03358">
        <ele>600</ele>
        <time>2013-01-31T13:21:27Z</time>
      </trkpt>
    </trkseg>
  </trk>
</gpx>